<?xml version='1.0' encoding='UTF-8'?><gpx version="1.1" creator="JPX - https://github.com/jenetics/jpx" xmlns="http://www.topografix.com/GPX/1/1"><trk><trkseg><trkpt lat="39.4473225" lon="9.6393562"><ele>8.0</ele><time>2026-04-24T13:00:29.37Z</time></trkpt><trkpt lat="39.4473768" lon="9.6393136"><ele>7.999999999999999</ele><time>2026-04-24T13:00:31.37Z</time></trkpt><trkpt lat="39.4474396" lon="9.639281"><ele>8.0</ele><time>2026-04-24T13:00:33.375Z</time></trkpt><trkpt lat="39.4474981" lon="9.6392388"><ele>8.0</ele><time>2026-04-24T13:00:35.365Z</time></trkpt><trkpt lat="39.4475735" lon="9.6392007"><ele>7.999999999999999</ele><time>2026-04-24T13:00:37.378Z</time></trkpt><trkpt lat="39.4476474" lon="9.6391764"><ele>8.0</ele><time>2026-04-24T13:00:39.393Z</time></trkpt><trkpt lat="39.447714" lon="9.6391618"><ele>8.0</ele><time>2026-04-24T13:00:41.38Z</time></trkpt><trkpt lat="39.4478" lon="9.6391545"><ele>7.999999999999999</ele><time>2026-04-24T13:00:43.379Z</time></trkpt><trkpt lat="39.4478867" lon="9.6391476"><ele>8.0</ele><time>2026-04-24T13:00:45.356Z</time></trkpt><trkpt lat="39.4479684" lon="9.639143"><ele>8.0</ele><time>2026-04-24T13:00:47.373Z</time></trkpt><trkpt lat="39.4480597" lon="9.6391217"><ele>8.0</ele><time>2026-04-24T13:00:49.375Z</time></trkpt><trkpt lat="39.4481451" lon="9.6390923"><ele>7.999999999999999</ele><time>2026-04-24T13:00:51.377Z</time></trkpt><trkpt lat="39.4482353" lon="9.6390582"><ele>8.0</ele><time>2026-04-24T13:00:53.379Z</time></trkpt><trkpt lat="39.4483269" lon="9.6390182"><ele>7.166666666666666</ele><time>2026-04-24T13:00:55.321Z</time></trkpt><trkpt lat="39.4484152" lon="9.6389742"><ele>6.333333333333333</ele><time>2026-04-24T13:00:57.332Z</time></trkpt><trkpt lat="39.4485023" lon="9.6389245"><ele>5.5</ele><time>2026-04-24T13:00:59.312Z</time></trkpt><trkpt lat="39.4485628" lon="9.638885"><ele>4.666666666666666</ele><time>2026-04-24T13:01:01.308Z</time></trkpt><trkpt lat="39.4485039" lon="9.6388261"><ele>3.833333333333333</ele><time>2026-04-24T13:01:04.321Z</time></trkpt><trkpt lat="39.4484156" lon="9.6388598"><ele>3.0</ele><time>2026-04-24T13:01:06.294Z</time></trkpt><trkpt lat="39.4483206" lon="9.638932"><ele>3.0</ele><time>2026-04-24T13:01:08.332Z</time></trkpt><trkpt lat="39.4482307" lon="9.6390078"><ele>3.0</ele><time>2026-04-24T13:01:10.323Z</time></trkpt><trkpt lat="39.4481485" lon="9.6390826"><ele>3.0</ele><time>2026-04-24T13:01:12.312Z</time></trkpt><trkpt lat="39.4480534" lon="9.6391374"><ele>3.0</ele><time>2026-04-24T13:01:14.326Z</time></trkpt><trkpt lat="39.4479612" lon="9.6391623"><ele>3.0</ele><time>2026-04-24T13:01:16.312Z</time></trkpt><trkpt lat="39.4478624" lon="9.6391862"><ele>4.0</ele><time>2026-04-24T13:01:18.324Z</time></trkpt><trkpt lat="39.4477683" lon="9.6392033"><ele>5.0</ele><time>2026-04-24T13:01:20.315Z</time></trkpt><trkpt lat="39.4476648" lon="9.6392111"><ele>6.000000000000001</ele><time>2026-04-24T13:01:22.301Z</time></trkpt><trkpt lat="39.4475725" lon="9.6392164"><ele>7.0</ele><time>2026-04-24T13:01:24.317Z</time></trkpt><trkpt lat="39.4474778" lon="9.6392627"><ele>8.0</ele><time>2026-04-24T13:01:26.323Z</time></trkpt><trkpt lat="39.4473946" lon="9.6393161"><ele>7.999999999999999</ele><time>2026-04-24T13:01:28.327Z</time></trkpt><trkpt lat="39.4473238" lon="9.6393744"><ele>8.0</ele><time>2026-04-24T13:01:30.317Z</time></trkpt><trkpt lat="39.4472731" lon="9.6394286"><ele>8.0</ele><time>2026-04-24T13:01:32.324Z</time></trkpt><trkpt lat="39.4473044" lon="9.6393412"><ele>8.0</ele><time>2026-04-24T13:01:53.322Z</time></trkpt><trkpt lat="39.4473802" lon="9.6393002"><ele>7.999999999999999</ele><time>2026-04-24T13:01:55.309Z</time></trkpt><trkpt lat="39.44746" lon="9.6392526"><ele>8.0</ele><time>2026-04-24T13:01:57.31Z</time></trkpt><trkpt lat="39.4475452" lon="9.6392121"><ele>8.0</ele><time>2026-04-24T13:01:59.304Z</time></trkpt><trkpt lat="39.4476325" lon="9.6391805"><ele>8.0</ele><time>2026-04-24T13:02:01.346Z</time></trkpt><trkpt lat="39.4477199" lon="9.6391573"><ele>8.0</ele><time>2026-04-24T13:02:03.329Z</time></trkpt><trkpt lat="39.4478135" lon="9.6391469"><ele>8.0</ele><time>2026-04-24T13:02:05.324Z</time></trkpt><trkpt lat="39.4479051" lon="9.6391434"><ele>8.0</ele><time>2026-04-24T13:02:07.317Z</time></trkpt><trkpt lat="39.4480062" lon="9.6391295"><ele>7.0</ele><time>2026-04-24T13:02:09.321Z</time></trkpt><trkpt lat="39.4481045" lon="9.6391039"><ele>6.000000000000001</ele><time>2026-04-24T13:02:11.317Z</time></trkpt><trkpt lat="39.4482055" lon="9.639079"><ele>5.0</ele><time>2026-04-24T13:02:13.306Z</time></trkpt><trkpt lat="39.4483084" lon="9.6390408"><ele>4.0</ele><time>2026-04-24T13:02:15.318Z</time></trkpt><trkpt lat="39.4483967" lon="9.6389905"><ele>3.0</ele><time>2026-04-24T13:02:17.312Z</time></trkpt><trkpt lat="39.4484879" lon="9.6389278"><ele>3.0</ele><time>2026-04-24T13:02:19.299Z</time></trkpt><trkpt lat="39.4485807" lon="9.6388604"><ele>3.0</ele><time>2026-04-24T13:02:21.33Z</time></trkpt><trkpt lat="39.4486581" lon="9.6387723"><ele>3.0</ele><time>2026-04-24T13:02:23.318Z</time></trkpt><trkpt lat="39.4487037" lon="9.6386595"><ele>3.0</ele><time>2026-04-24T13:02:25.329Z</time></trkpt><trkpt lat="39.4487289" lon="9.6385315"><ele>3.0</ele><time>2026-04-24T13:02:27.326Z</time></trkpt><trkpt lat="39.4487468" lon="9.6384068"><ele>3.5</ele><time>2026-04-24T13:02:29.328Z</time></trkpt><trkpt lat="39.4487521" lon="9.6382885"><ele>4.0</ele><time>2026-04-24T13:02:31.321Z</time></trkpt><trkpt lat="39.4487624" lon="9.6381736"><ele>4.5</ele><time>2026-04-24T13:02:33.324Z</time></trkpt><trkpt lat="39.4487705" lon="9.6380772"><ele>5.0</ele><time>2026-04-24T13:02:35.317Z</time></trkpt><trkpt lat="39.4487809" lon="9.6379939"><ele>5.5</ele><time>2026-04-24T13:02:38.325Z</time></trkpt><trkpt lat="39.4488462" lon="9.6379737"><ele>6.0</ele><time>2026-04-24T13:02:42.315Z</time></trkpt><trkpt lat="39.4489106" lon="9.6379752"><ele>6.285714285714285</ele><time>2026-04-24T13:02:44.332Z</time></trkpt><trkpt lat="39.4489808" lon="9.6379791"><ele>6.571428571428571</ele><time>2026-04-24T13:02:46.314Z</time></trkpt><trkpt lat="39.4490541" lon="9.6379833"><ele>6.857142857142857</ele><time>2026-04-24T13:02:48.329Z</time></trkpt><trkpt lat="39.4491298" lon="9.6379844"><ele>7.142857142857142</ele><time>2026-04-24T13:02:50.309Z</time></trkpt><trkpt lat="39.4491988" lon="9.637987"><ele>7.428571428571428</ele><time>2026-04-24T13:02:52.325Z</time></trkpt><trkpt lat="39.4492701" lon="9.6379956"><ele>7.7142857142857135</ele><time>2026-04-24T13:02:54.325Z</time></trkpt><trkpt lat="39.4493451" lon="9.6380323"><ele>8.0</ele><time>2026-04-24T13:02:56.331Z</time></trkpt><trkpt lat="39.4494202" lon="9.6380743"><ele>8.0</ele><time>2026-04-24T13:02:58.318Z</time></trkpt><trkpt lat="39.4494967" lon="9.6380863"><ele>7.999999999999999</ele><time>2026-04-24T13:03:00.318Z</time></trkpt><trkpt lat="39.4495844" lon="9.6380717"><ele>8.0</ele><time>2026-04-24T13:03:03.334Z</time></trkpt><trkpt lat="39.4496352" lon="9.6380056"><ele>8.0</ele><time>2026-04-24T13:03:06.303Z</time></trkpt><trkpt lat="39.4496557" lon="9.6379231"><ele>7.999999999999999</ele><time>2026-04-24T13:03:08.336Z</time></trkpt><trkpt lat="39.4496864" lon="9.6378444"><ele>8.0</ele><time>2026-04-24T13:03:11.305Z</time></trkpt><trkpt lat="39.4497501" lon="9.6378205"><ele>8.0</ele><time>2026-04-24T13:03:14.338Z</time></trkpt><trkpt lat="39.4498235" lon="9.6378406"><ele>7.833333333333333</ele><time>2026-04-24T13:03:17.352Z</time></trkpt><trkpt lat="39.449793" lon="9.6377427"><ele>7.666666666666666</ele><time>2026-04-24T13:03:25.325Z</time></trkpt><trkpt lat="39.4497331" lon="9.6376769"><ele>7.5</ele><time>2026-04-24T13:03:27.327Z</time></trkpt><trkpt lat="39.4496634" lon="9.6376204"><ele>7.333333333333334</ele><time>2026-04-24T13:03:29.322Z</time></trkpt><trkpt lat="39.4495903" lon="9.6375601"><ele>7.166666666666667</ele><time>2026-04-24T13:03:31.321Z</time></trkpt><trkpt lat="39.4495485" lon="9.6374951"><ele>7.0</ele><time>2026-04-24T13:03:33.312Z</time></trkpt><trkpt lat="39.4495575" lon="9.6374113"><ele>7.000000000000001</ele><time>2026-04-24T13:03:35.321Z</time></trkpt><trkpt lat="39.4496138" lon="9.6373134"><ele>7.0</ele><time>2026-04-24T13:03:37.343Z</time></trkpt><trkpt lat="39.4496637" lon="9.6372416"><ele>7.0</ele><time>2026-04-24T13:03:39.297Z</time></trkpt><trkpt lat="39.4497158" lon="9.637178"><ele>7.0</ele><time>2026-04-24T13:03:41.334Z</time></trkpt><trkpt lat="39.4497629" lon="9.6371148"><ele>7.000000000000001</ele><time>2026-04-24T13:03:43.313Z</time></trkpt><trkpt lat="39.4498106" lon="9.637046"><ele>7.0</ele><time>2026-04-24T13:03:45.319Z</time></trkpt><trkpt lat="39.449858" lon="9.6369792"><ele>7.285714285714286</ele><time>2026-04-24T13:03:47.33Z</time></trkpt><trkpt lat="39.4499079" lon="9.6369244"><ele>7.571428571428571</ele><time>2026-04-24T13:03:49.3Z</time></trkpt><trkpt lat="39.449959" lon="9.6368755"><ele>7.857142857142858</ele><time>2026-04-24T13:03:51.334Z</time></trkpt><trkpt lat="39.4500338" lon="9.6368075"><ele>8.142857142857142</ele><time>2026-04-24T13:03:54.315Z</time></trkpt><trkpt lat="39.4501133" lon="9.6367434"><ele>8.428571428571429</ele><time>2026-04-24T13:03:57.314Z</time></trkpt><trkpt lat="39.4501704" lon="9.6367017"><ele>8.714285714285715</ele><time>2026-04-24T13:03:59.32Z</time></trkpt><trkpt lat="39.450231" lon="9.6366627"><ele>9.0</ele><time>2026-04-24T13:04:01.327Z</time></trkpt><trkpt lat="39.4503139" lon="9.6366169"><ele>9.000000000000002</ele><time>2026-04-24T13:04:04.324Z</time></trkpt><trkpt lat="39.450394" lon="9.6365707"><ele>9.0</ele><time>2026-04-24T13:04:07.32Z</time></trkpt><trkpt lat="39.4504571" lon="9.6365449"><ele>9.0</ele><time>2026-04-24T13:04:09.326Z</time></trkpt><trkpt lat="39.4505233" lon="9.6365224"><ele>9.0</ele><time>2026-04-24T13:04:11.325Z</time></trkpt><trkpt lat="39.450588" lon="9.636518"><ele>9.0</ele><time>2026-04-24T13:04:13.327Z</time></trkpt><trkpt lat="39.4506527" lon="9.6365197"><ele>9.000000000000002</ele><time>2026-04-24T13:04:15.329Z</time></trkpt><trkpt lat="39.450745" lon="9.6365308"><ele>9.0</ele><time>2026-04-24T13:04:18.323Z</time></trkpt><trkpt lat="39.4508366" lon="9.6365595"><ele>9.571428571428573</ele><time>2026-04-24T13:04:21.34Z</time></trkpt><trkpt lat="39.450902" lon="9.6365775"><ele>10.142857142857142</ele><time>2026-04-24T13:04:23.324Z</time></trkpt><trkpt lat="39.4509778" lon="9.6366001"><ele>10.714285714285715</ele><time>2026-04-24T13:04:25.32Z</time></trkpt><trkpt lat="39.4510367" lon="9.636637"><ele>11.285714285714286</ele><time>2026-04-24T13:04:27.325Z</time></trkpt><trkpt lat="39.4511049" lon="9.636663"><ele>11.857142857142858</ele><time>2026-04-24T13:04:30.312Z</time></trkpt><trkpt lat="39.4510572" lon="9.6366048"><ele>12.428571428571429</ele><time>2026-04-24T13:04:36.335Z</time></trkpt><trkpt lat="39.450988" lon="9.6365883"><ele>13.0</ele><time>2026-04-24T13:04:38.332Z</time></trkpt><trkpt lat="39.4509105" lon="9.6365639"><ele>13.0</ele><time>2026-04-24T13:04:40.322Z</time></trkpt><trkpt lat="39.4508919" lon="9.6364745"><ele>13.0</ele><time>2026-04-24T13:04:45.3Z</time></trkpt><trkpt lat="39.4508975" lon="9.6363736"><ele>13.0</ele><time>2026-04-24T13:04:53.315Z</time></trkpt><trkpt lat="39.4509076" lon="9.6362747"><ele>13.0</ele><time>2026-04-24T13:05:03.32Z</time></trkpt><trkpt lat="39.4509154" lon="9.6361892"><ele>13.0</ele><time>2026-04-24T13:05:08.328Z</time></trkpt><trkpt lat="39.4509498" lon="9.6361092"><ele>13.0</ele><time>2026-04-24T13:05:12.331Z</time></trkpt><trkpt lat="39.4509548" lon="9.6360133"><ele>13.0</ele><time>2026-04-24T13:05:17.32Z</time></trkpt><trkpt lat="39.4509688" lon="9.6359285"><ele>12.999999999999998</ele><time>2026-04-24T13:05:23.318Z</time></trkpt><trkpt lat="39.4510223" lon="9.6358846"><ele>13.0</ele><time>2026-04-24T13:05:38.315Z</time></trkpt><trkpt lat="39.4510746" lon="9.6358255"><ele>13.0</ele><time>2026-04-24T13:05:42.331Z</time></trkpt><trkpt lat="39.4511412" lon="9.6357726"><ele>13.0</ele><time>2026-04-24T13:05:45.317Z</time></trkpt><trkpt lat="39.4512052" lon="9.6357212"><ele>12.999999999999998</ele><time>2026-04-24T13:05:47.301Z</time></trkpt><trkpt lat="39.4512637" lon="9.6356385"><ele>13.0</ele><time>2026-04-24T13:05:49.339Z</time></trkpt><trkpt lat="39.4513092" lon="9.6355458"><ele>13.0</ele><time>2026-04-24T13:05:51.327Z</time></trkpt><trkpt lat="39.4513451" lon="9.6354569"><ele>13.0</ele><time>2026-04-24T13:05:53.326Z</time></trkpt><trkpt lat="39.4513805" lon="9.6353714"><ele>13.0</ele><time>2026-04-24T13:05:55.318Z</time></trkpt><trkpt lat="39.4514192" lon="9.635299"><ele>13.0</ele><time>2026-04-24T13:05:57.33Z</time></trkpt><trkpt lat="39.4514592" lon="9.6352339"><ele>13.0</ele><time>2026-04-24T13:05:59.309Z</time></trkpt><trkpt lat="39.4515008" lon="9.6351646"><ele>13.0</ele><time>2026-04-24T13:06:01.303Z</time></trkpt><trkpt lat="39.4515594" lon="9.6350761"><ele>13.0</ele><time>2026-04-24T13:06:04.128Z</time></trkpt><trkpt lat="39.451614" lon="9.6349855"><ele>13.166666666666666</ele><time>2026-04-24T13:06:07.126Z</time></trkpt><trkpt lat="39.4516473" lon="9.6349149"><ele>13.333333333333332</ele><time>2026-04-24T13:06:09.326Z</time></trkpt><trkpt lat="39.451689" lon="9.6348517"><ele>13.5</ele><time>2026-04-24T13:06:11.335Z</time></trkpt><trkpt lat="39.4517387" lon="9.6348014"><ele>13.666666666666668</ele><time>2026-04-24T13:06:13.351Z</time></trkpt><trkpt lat="39.4518043" lon="9.6348885"><ele>13.833333333333334</ele><time>2026-04-24T13:06:16.266Z</time></trkpt><trkpt lat="39.4518194" lon="9.6350048"><ele>14.0</ele><time>2026-04-24T13:06:18.317Z</time></trkpt><trkpt lat="39.4518835" lon="9.6350548"><ele>14.000000000000002</ele><time>2026-04-24T13:06:21.32Z</time></trkpt><trkpt lat="39.4519583" lon="9.6349924"><ele>14.0</ele><time>2026-04-24T13:06:50.329Z</time></trkpt><trkpt lat="39.4520489" lon="9.6349669"><ele>14.0</ele><time>2026-04-24T13:06:53.32Z</time></trkpt><trkpt lat="39.4521166" lon="9.6349547"><ele>14.0</ele><time>2026-04-24T13:06:55.309Z</time></trkpt><trkpt lat="39.4521853" lon="9.6349342"><ele>14.000000000000002</ele><time>2026-04-24T13:06:57.35Z</time></trkpt><trkpt lat="39.4522747" lon="9.6348996"><ele>14.0</ele><time>2026-04-24T13:07:00.32Z</time></trkpt><trkpt lat="39.4523338" lon="9.6348592"><ele>14.571428571428571</ele><time>2026-04-24T13:07:03.316Z</time></trkpt><trkpt lat="39.4523997" lon="9.6348104"><ele>15.142857142857142</ele><time>2026-04-24T13:07:06.325Z</time></trkpt><trkpt lat="39.4524672" lon="9.6347724"><ele>15.714285714285715</ele><time>2026-04-24T13:07:08.336Z</time></trkpt><trkpt lat="39.4525348" lon="9.6347339"><ele>16.285714285714285</ele><time>2026-04-24T13:07:10.321Z</time></trkpt><trkpt lat="39.4525969" lon="9.6346942"><ele>16.857142857142858</ele><time>2026-04-24T13:07:13.318Z</time></trkpt><trkpt lat="39.452636" lon="9.6346301"><ele>17.42857142857143</ele><time>2026-04-24T13:07:16.304Z</time></trkpt><trkpt lat="39.4526581" lon="9.6345194"><ele>18.0</ele><time>2026-04-24T13:07:19.329Z</time></trkpt><trkpt lat="39.4527253" lon="9.6345002"><ele>18.000000000000004</ele><time>2026-04-24T13:07:24.32Z</time></trkpt><trkpt lat="39.4527696" lon="9.6345646"><ele>18.0</ele><time>2026-04-24T13:07:27.317Z</time></trkpt><trkpt lat="39.4528112" lon="9.6344923"><ele>18.0</ele><time>2026-04-24T13:07:33.359Z</time></trkpt><trkpt lat="39.4527825" lon="9.6345908"><ele>18.0</ele><time>2026-04-24T13:07:43.313Z</time></trkpt><trkpt lat="39.4527474" lon="9.6346591"><ele>18.0</ele><time>2026-04-24T13:07:45.31Z</time></trkpt><trkpt lat="39.4526881" lon="9.6347025"><ele>18.000000000000004</ele><time>2026-04-24T13:07:47.309Z</time></trkpt><trkpt lat="39.452606" lon="9.6347278"><ele>18.0</ele><time>2026-04-24T13:07:49.324Z</time></trkpt><trkpt lat="39.4525251" lon="9.6347535"><ele>18.000000000000004</ele><time>2026-04-24T13:07:51.329Z</time></trkpt><trkpt lat="39.4524489" lon="9.6347805"><ele>18.0</ele><time>2026-04-24T13:07:53.325Z</time></trkpt><trkpt lat="39.4523799" lon="9.6348154"><ele>18.0</ele><time>2026-04-24T13:07:55.316Z</time></trkpt><trkpt lat="39.4523191" lon="9.6348488"><ele>18.0</ele><time>2026-04-24T13:07:57.337Z</time></trkpt><trkpt lat="39.4522684" lon="9.6348981"><ele>18.0</ele><time>2026-04-24T13:08:00.323Z</time></trkpt><trkpt lat="39.4522105" lon="9.6349319"><ele>18.000000000000004</ele><time>2026-04-24T13:08:02.335Z</time></trkpt><trkpt lat="39.4521415" lon="9.6349526"><ele>18.0</ele><time>2026-04-24T13:08:04.33Z</time></trkpt><trkpt lat="39.4520802" lon="9.6349825"><ele>18.0</ele><time>2026-04-24T13:08:08.329Z</time></trkpt><trkpt lat="39.4521792" lon="9.6349374"><ele>18.0</ele><time>2026-04-24T13:08:13.308Z</time></trkpt><trkpt lat="39.4522445" lon="9.6348958"><ele>18.0</ele><time>2026-04-24T13:08:15.311Z</time></trkpt><trkpt lat="39.4523084" lon="9.6348655"><ele>18.0</ele><time>2026-04-24T13:08:17.334Z</time></trkpt><trkpt lat="39.4523933" lon="9.6348293"><ele>18.0</ele><time>2026-04-24T13:08:20.315Z</time></trkpt><trkpt lat="39.4524629" lon="9.6348074"><ele>18.0</ele><time>2026-04-24T13:08:22.307Z</time></trkpt><trkpt lat="39.4525371" lon="9.6347952"><ele>18.000000000000004</ele><time>2026-04-24T13:08:24.319Z</time></trkpt><trkpt lat="39.4526078" lon="9.6347849"><ele>18.0</ele><time>2026-04-24T13:08:26.321Z</time></trkpt><trkpt lat="39.4526792" lon="9.6347618"><ele>18.0</ele><time>2026-04-24T13:08:28.323Z</time></trkpt><trkpt lat="39.4527431" lon="9.6347317"><ele>18.0</ele><time>2026-04-24T13:08:30.319Z</time></trkpt><trkpt lat="39.4528106" lon="9.6347104"><ele>18.0</ele><time>2026-04-24T13:08:32.312Z</time></trkpt><trkpt lat="39.4528885" lon="9.6346853"><ele>18.000000000000004</ele><time>2026-04-24T13:08:34.339Z</time></trkpt><trkpt lat="39.4529605" lon="9.6346597"><ele>18.0</ele><time>2026-04-24T13:08:36.319Z</time></trkpt><trkpt lat="39.4530279" lon="9.6346412"><ele>18.42857142857143</ele><time>2026-04-24T13:08:38.342Z</time></trkpt><trkpt lat="39.4531005" lon="9.6346287"><ele>18.857142857142858</ele><time>2026-04-24T13:08:40.342Z</time></trkpt><trkpt lat="39.4531662" lon="9.6346222"><ele>19.285714285714285</ele><time>2026-04-24T13:08:42.318Z</time></trkpt><trkpt lat="39.4532386" lon="9.6346173"><ele>19.714285714285715</ele><time>2026-04-24T13:08:44.334Z</time></trkpt><trkpt lat="39.4533058" lon="9.6346162"><ele>20.142857142857142</ele><time>2026-04-24T13:08:46.344Z</time></trkpt><trkpt lat="39.4533701" lon="9.6346056"><ele>20.571428571428573</ele><time>2026-04-24T13:08:48.317Z</time></trkpt><trkpt lat="39.4534449" lon="9.6345923"><ele>21.0</ele><time>2026-04-24T13:08:51.32Z</time></trkpt><trkpt lat="39.4535048" lon="9.6345413"><ele>21.0</ele><time>2026-04-24T13:08:55.332Z</time></trkpt><trkpt lat="39.4535738" lon="9.6345003"><ele>21.0</ele><time>2026-04-24T13:08:58.322Z</time></trkpt><trkpt lat="39.4536594" lon="9.6344799"><ele>21.0</ele><time>2026-04-24T13:09:01.327Z</time></trkpt><trkpt lat="39.4537307" lon="9.6344626"><ele>21.0</ele><time>2026-04-24T13:09:03.326Z</time></trkpt><trkpt lat="39.4538064" lon="9.634438"><ele>21.0</ele><time>2026-04-24T13:09:06.325Z</time></trkpt><trkpt lat="39.4538824" lon="9.6344799"><ele>21.0</ele><time>2026-04-24T13:09:10.31Z</time></trkpt><trkpt lat="39.4539444" lon="9.6345111"><ele>22.166666666666668</ele><time>2026-04-24T13:09:15.332Z</time></trkpt><trkpt lat="39.4539931" lon="9.6344525"><ele>23.333333333333336</ele><time>2026-04-24T13:09:19.332Z</time></trkpt><trkpt lat="39.4540222" lon="9.6345515"><ele>24.5</ele><time>2026-04-24T13:09:24.331Z</time></trkpt><trkpt lat="39.4540021" lon="9.634651"><ele>25.666666666666668</ele><time>2026-04-24T13:09:26.321Z</time></trkpt><trkpt lat="39.4539793" lon="9.6347612"><ele>26.833333333333336</ele><time>2026-04-24T13:09:28.322Z</time></trkpt><trkpt lat="39.4539783" lon="9.634868"><ele>28.0</ele><time>2026-04-24T13:09:30.324Z</time></trkpt><trkpt lat="39.4539769" lon="9.6349828"><ele>28.000000000000004</ele><time>2026-04-24T13:09:33.333Z</time></trkpt><trkpt lat="39.4539819" lon="9.6350967"><ele>28.0</ele><time>2026-04-24T13:09:36.326Z</time></trkpt><trkpt lat="39.4539784" lon="9.6351831"><ele>28.0</ele><time>2026-04-24T13:09:38.325Z</time></trkpt><trkpt lat="39.4539752" lon="9.6352692"><ele>28.0</ele><time>2026-04-24T13:09:40.331Z</time></trkpt><trkpt lat="39.4539757" lon="9.6353856"><ele>28.000000000000004</ele><time>2026-04-24T13:09:43.339Z</time></trkpt><trkpt lat="39.4540146" lon="9.6354657"><ele>28.0</ele><time>2026-04-24T13:09:46.304Z</time></trkpt><trkpt lat="39.4540814" lon="9.6354696"><ele>27.714285714285715</ele><time>2026-04-24T13:09:48.32Z</time></trkpt><trkpt lat="39.4541455" lon="9.6354573"><ele>27.42857142857143</ele><time>2026-04-24T13:09:50.339Z</time></trkpt><trkpt lat="39.4542347" lon="9.6354435"><ele>27.142857142857142</ele><time>2026-04-24T13:09:53.331Z</time></trkpt><trkpt lat="39.4543106" lon="9.6354341"><ele>26.857142857142858</ele><time>2026-04-24T13:09:56.302Z</time></trkpt><trkpt lat="39.454374" lon="9.6354268"><ele>26.571428571428573</ele><time>2026-04-24T13:09:58.305Z</time></trkpt><trkpt lat="39.4544405" lon="9.6354254"><ele>26.285714285714285</ele><time>2026-04-24T13:10:00.324Z</time></trkpt><trkpt lat="39.4545004" lon="9.6354003"><ele>26.0</ele><time>2026-04-24T13:10:05.332Z</time></trkpt><trkpt lat="39.4545898" lon="9.6354202"><ele>27.166666666666664</ele><time>2026-04-24T13:11:34.335Z</time></trkpt><trkpt lat="39.4546733" lon="9.6354403"><ele>28.333333333333332</ele><time>2026-04-24T13:11:37.324Z</time></trkpt><trkpt lat="39.4547432" lon="9.6354389"><ele>29.5</ele><time>2026-04-24T13:11:39.335Z</time></trkpt><trkpt lat="39.4548413" lon="9.63544"><ele>30.666666666666664</ele><time>2026-04-24T13:11:42.326Z</time></trkpt><trkpt lat="39.4549111" lon="9.6354503"><ele>31.833333333333332</ele><time>2026-04-24T13:11:44.331Z</time></trkpt><trkpt lat="39.455003" lon="9.6354494"><ele>33.0</ele><time>2026-04-24T13:11:47.346Z</time></trkpt><trkpt lat="39.4550695" lon="9.6354529"><ele>33.0</ele><time>2026-04-24T13:11:49.328Z</time></trkpt><trkpt lat="39.4551617" lon="9.6354725"><ele>33.0</ele><time>2026-04-24T13:11:52.325Z</time></trkpt><trkpt lat="39.4552269" lon="9.6355431"><ele>33.0</ele><time>2026-04-24T13:11:55.334Z</time></trkpt><trkpt lat="39.4552519" lon="9.6356254"><ele>33.0</ele><time>2026-04-24T13:11:58.319Z</time></trkpt><trkpt lat="39.4552733" lon="9.6357035"><ele>33.0</ele><time>2026-04-24T13:12:01.334Z</time></trkpt><trkpt lat="39.4553061" lon="9.6357933"><ele>33.0</ele><time>2026-04-24T13:12:05.319Z</time></trkpt><trkpt lat="39.4553298" lon="9.6358851"><ele>33.0</ele><time>2026-04-24T13:12:09.322Z</time></trkpt><trkpt lat="39.455336" lon="9.6359701"><ele>33.0</ele><time>2026-04-24T13:12:12.304Z</time></trkpt><trkpt lat="39.4553932" lon="9.6360561"><ele>33.0</ele><time>2026-04-24T13:12:16.33Z</time></trkpt><trkpt lat="39.4554514" lon="9.6361233"><ele>33.0</ele><time>2026-04-24T13:12:20.322Z</time></trkpt><trkpt lat="39.4555056" lon="9.6361652"><ele>33.0</ele><time>2026-04-24T13:12:23.334Z</time></trkpt><trkpt lat="39.4555598" lon="9.6362139"><ele>33.0</ele><time>2026-04-24T13:12:26.328Z</time></trkpt><trkpt lat="39.4556352" lon="9.6362486"><ele>33.0</ele><time>2026-04-24T13:12:30.318Z</time></trkpt><trkpt lat="39.4556942" lon="9.6362844"><ele>34.714285714285715</ele><time>2026-04-24T13:12:33.323Z</time></trkpt><trkpt lat="39.4557543" lon="9.6363145"><ele>36.42857142857143</ele><time>2026-04-24T13:12:36.32Z</time></trkpt><trkpt lat="39.4558155" lon="9.6363444"><ele>38.14285714285714</ele><time>2026-04-24T13:12:39.335Z</time></trkpt><trkpt lat="39.455884" lon="9.6363728"><ele>39.85714285714286</ele><time>2026-04-24T13:12:43.326Z</time></trkpt><trkpt lat="39.4559573" lon="9.6364117"><ele>41.57142857142858</ele><time>2026-04-24T13:12:47.333Z</time></trkpt><trkpt lat="39.4560369" lon="9.6364411"><ele>43.285714285714285</ele><time>2026-04-24T13:12:51.326Z</time></trkpt><trkpt lat="39.4561177" lon="9.6364382"><ele>45.0</ele><time>2026-04-24T13:12:55.328Z</time></trkpt><trkpt lat="39.4561869" lon="9.6364407"><ele>45.0</ele><time>2026-04-24T13:12:58.343Z</time></trkpt><trkpt lat="39.4562596" lon="9.6364472"><ele>45.0</ele><time>2026-04-24T13:13:02.335Z</time></trkpt><trkpt lat="39.4563294" lon="9.6364631"><ele>45.0</ele><time>2026-04-24T13:13:06.329Z</time></trkpt><trkpt lat="39.4563973" lon="9.6364833"><ele>45.0</ele><time>2026-04-24T13:13:10.337Z</time></trkpt><trkpt lat="39.4564742" lon="9.6365302"><ele>45.0</ele><time>2026-04-24T13:13:14.339Z</time></trkpt><trkpt lat="39.4565342" lon="9.6365793"><ele>45.0</ele><time>2026-04-24T13:13:17.339Z</time></trkpt><trkpt lat="39.4565914" lon="9.6366599"><ele>46.57142857142857</ele><time>2026-04-24T13:13:21.338Z</time></trkpt><trkpt lat="39.4566366" lon="9.6367462"><ele>48.142857142857146</ele><time>2026-04-24T13:13:25.346Z</time></trkpt><trkpt lat="39.4566477" lon="9.6368289"><ele>49.714285714285715</ele><time>2026-04-24T13:13:29.324Z</time></trkpt><trkpt lat="39.4566552" lon="9.6369256"><ele>51.285714285714285</ele><time>2026-04-24T13:13:33.336Z</time></trkpt><trkpt lat="39.4566776" lon="9.6370057"><ele>52.85714285714286</ele><time>2026-04-24T13:13:37.343Z</time></trkpt><trkpt lat="39.4567315" lon="9.6370756"><ele>54.42857142857143</ele><time>2026-04-24T13:13:41.338Z</time></trkpt><trkpt lat="39.4567846" lon="9.6371286"><ele>56.0</ele><time>2026-04-24T13:13:45.322Z</time></trkpt><trkpt lat="39.4568407" lon="9.6371738"><ele>56.0</ele><time>2026-04-24T13:13:49.331Z</time></trkpt><trkpt lat="39.4569039" lon="9.6372284"><ele>56.0</ele><time>2026-04-24T13:13:53.341Z</time></trkpt><trkpt lat="39.4569633" lon="9.6372929"><ele>56.0</ele><time>2026-04-24T13:13:57.346Z</time></trkpt><trkpt lat="39.4570175" lon="9.6373581"><ele>56.0</ele><time>2026-04-24T13:14:02.335Z</time></trkpt><trkpt lat="39.4570771" lon="9.6374112"><ele>56.0</ele><time>2026-04-24T13:14:06.333Z</time></trkpt><trkpt lat="39.4571377" lon="9.637461"><ele>56.0</ele><time>2026-04-24T13:14:10.329Z</time></trkpt><trkpt lat="39.4572027" lon="9.6374884"><ele>56.0</ele><time>2026-04-24T13:14:14.345Z</time></trkpt><trkpt lat="39.4572727" lon="9.6375019"><ele>59.0</ele><time>2026-04-24T13:14:18.344Z</time></trkpt><trkpt lat="39.4573363" lon="9.637495"><ele>62.0</ele><time>2026-04-24T13:14:21.348Z</time></trkpt><trkpt lat="39.4573998" lon="9.6374914"><ele>65.0</ele><time>2026-04-24T13:14:25.323Z</time></trkpt><trkpt lat="39.457472" lon="9.6374949"><ele>68.0</ele><time>2026-04-24T13:14:29.332Z</time></trkpt><trkpt lat="39.4575385" lon="9.6375385"><ele>71.0</ele><time>2026-04-24T13:14:33.299Z</time></trkpt><trkpt lat="39.4575815" lon="9.6376043"><ele>74.0</ele><time>2026-04-24T13:14:36.335Z</time></trkpt><trkpt lat="39.4576108" lon="9.6376808"><ele>77.0</ele><time>2026-04-24T13:14:40.319Z</time></trkpt><trkpt lat="39.4576742" lon="9.6377271"><ele>77.0</ele><time>2026-04-24T13:14:44.339Z</time></trkpt><trkpt lat="39.4577403" lon="9.637748"><ele>77.0</ele><time>2026-04-24T13:14:47.368Z</time></trkpt><trkpt lat="39.4578199" lon="9.6377495"><ele>77.0</ele><time>2026-04-24T13:14:51.339Z</time></trkpt><trkpt lat="39.4578955" lon="9.6377536"><ele>77.0</ele><time>2026-04-24T13:14:55.327Z</time></trkpt><trkpt lat="39.457976" lon="9.6377533"><ele>77.0</ele><time>2026-04-24T13:14:59.335Z</time></trkpt><trkpt lat="39.4580512" lon="9.6377611"><ele>77.0</ele><time>2026-04-24T13:15:04.335Z</time></trkpt><trkpt lat="39.4581205" lon="9.6377582"><ele>77.0</ele><time>2026-04-24T13:15:08.338Z</time></trkpt><trkpt lat="39.458184" lon="9.6377467"><ele>77.28571428571429</ele><time>2026-04-24T13:15:11.329Z</time></trkpt><trkpt lat="39.4582552" lon="9.6377516"><ele>77.57142857142857</ele><time>2026-04-24T13:15:14.34Z</time></trkpt><trkpt lat="39.4583196" lon="9.6377652"><ele>77.85714285714286</ele><time>2026-04-24T13:15:17.333Z</time></trkpt><trkpt lat="39.4583936" lon="9.6378045"><ele>78.14285714285714</ele><time>2026-04-24T13:15:21.311Z</time></trkpt><trkpt lat="39.45846" lon="9.6378583"><ele>78.42857142857143</ele><time>2026-04-24T13:15:25.338Z</time></trkpt><trkpt lat="39.4585258" lon="9.6379191"><ele>78.71428571428572</ele><time>2026-04-24T13:15:29.337Z</time></trkpt><trkpt lat="39.4585888" lon="9.6379672"><ele>79.0</ele><time>2026-04-24T13:15:32.331Z</time></trkpt><trkpt lat="39.4586498" lon="9.637998"><ele>79.0</ele><time>2026-04-24T13:15:36.33Z</time></trkpt><trkpt lat="39.4587203" lon="9.6380073"><ele>79.0</ele><time>2026-04-24T13:15:40.343Z</time></trkpt><trkpt lat="39.4587828" lon="9.6379673"><ele>79.0</ele><time>2026-04-24T13:15:43.311Z</time></trkpt><trkpt lat="39.4588374" lon="9.6379151"><ele>79.0</ele><time>2026-04-24T13:15:45.324Z</time></trkpt><trkpt lat="39.4588915" lon="9.6378597"><ele>79.0</ele><time>2026-04-24T13:15:47.314Z</time></trkpt><trkpt lat="39.4589502" lon="9.6377607"><ele>79.0</ele><time>2026-04-24T13:15:50.332Z</time></trkpt><trkpt lat="39.4590018" lon="9.6376734"><ele>79.83333333333333</ele><time>2026-04-24T13:15:53.337Z</time></trkpt><trkpt lat="39.4590552" lon="9.6375861"><ele>80.66666666666666</ele><time>2026-04-24T13:15:56.352Z</time></trkpt><trkpt lat="39.4591129" lon="9.6375052"><ele>81.5</ele><time>2026-04-24T13:15:59.335Z</time></trkpt><trkpt lat="39.4591552" lon="9.6374396"><ele>82.33333333333333</ele><time>2026-04-24T13:16:01.337Z</time></trkpt><trkpt lat="39.459201" lon="9.637374"><ele>83.16666666666667</ele><time>2026-04-24T13:16:03.338Z</time></trkpt><trkpt lat="39.459245" lon="9.637315"><ele>84.0</ele><time>2026-04-24T13:16:05.348Z</time></trkpt><trkpt lat="39.4593141" lon="9.6372363"><ele>84.0</ele><time>2026-04-24T13:16:08.362Z</time></trkpt><trkpt lat="39.4593601" lon="9.6371806"><ele>84.0</ele><time>2026-04-24T13:16:10.331Z</time></trkpt><trkpt lat="39.4594079" lon="9.637111"><ele>84.0</ele><time>2026-04-24T13:16:12.348Z</time></trkpt><trkpt lat="39.4594714" lon="9.6370298"><ele>84.0</ele><time>2026-04-24T13:16:15.337Z</time></trkpt><trkpt lat="39.4595134" lon="9.6369642"><ele>84.0</ele><time>2026-04-24T13:16:17.333Z</time></trkpt><trkpt lat="39.4595548" lon="9.636898"><ele>84.0</ele><time>2026-04-24T13:16:19.327Z</time></trkpt><trkpt lat="39.4596005" lon="9.6368339"><ele>84.0</ele><time>2026-04-24T13:16:21.337Z</time></trkpt><trkpt lat="39.459648" lon="9.636773"><ele>83.33333333333333</ele><time>2026-04-24T13:16:23.343Z</time></trkpt><trkpt lat="39.4597066" lon="9.6366856"><ele>82.66666666666667</ele><time>2026-04-24T13:16:26.345Z</time></trkpt><trkpt lat="39.4597561" lon="9.6365916"><ele>82.0</ele><time>2026-04-24T13:16:29.341Z</time></trkpt><trkpt lat="39.4597976" lon="9.6365072"><ele>81.33333333333334</ele><time>2026-04-24T13:16:31.336Z</time></trkpt><trkpt lat="39.4598312" lon="9.6364245"><ele>80.66666666666667</ele><time>2026-04-24T13:16:33.348Z</time></trkpt><trkpt lat="39.4598609" lon="9.6363457"><ele>80.0</ele><time>2026-04-24T13:16:35.335Z</time></trkpt><trkpt lat="39.4598916" lon="9.6362614"><ele>80.0</ele><time>2026-04-24T13:16:37.355Z</time></trkpt><trkpt lat="39.4599212" lon="9.6361812"><ele>80.0</ele><time>2026-04-24T13:16:39.327Z</time></trkpt><trkpt lat="39.459966" lon="9.6360868"><ele>80.0</ele><time>2026-04-24T13:16:42.343Z</time></trkpt><trkpt lat="39.4600143" lon="9.6360305"><ele>80.0</ele><time>2026-04-24T13:16:44.337Z</time></trkpt><trkpt lat="39.4600727" lon="9.6359839"><ele>80.0</ele><time>2026-04-24T13:16:46.344Z</time></trkpt><trkpt lat="39.4601328" lon="9.6359478"><ele>80.0</ele><time>2026-04-24T13:16:48.33Z</time></trkpt><trkpt lat="39.4601961" lon="9.6359377"><ele>80.0</ele><time>2026-04-24T13:16:50.333Z</time></trkpt><trkpt lat="39.4602717" lon="9.6359293"><ele>82.16666666666667</ele><time>2026-04-24T13:16:52.338Z</time></trkpt><trkpt lat="39.4603457" lon="9.6359221"><ele>84.33333333333334</ele><time>2026-04-24T13:16:54.311Z</time></trkpt><trkpt lat="39.460414" lon="9.6359075"><ele>86.5</ele><time>2026-04-24T13:16:56.327Z</time></trkpt><trkpt lat="39.4605063" lon="9.635904"><ele>88.66666666666667</ele><time>2026-04-24T13:16:59.324Z</time></trkpt><trkpt lat="39.4605786" lon="9.6359394"><ele>90.83333333333333</ele><time>2026-04-24T13:17:02.338Z</time></trkpt><trkpt lat="39.460633" lon="9.636042"><ele>93.0</ele><time>2026-04-24T13:17:05.325Z</time></trkpt><trkpt lat="39.4606485" lon="9.6361313"><ele>92.5</ele><time>2026-04-24T13:17:07.329Z</time></trkpt><trkpt lat="39.4606625" lon="9.6362315"><ele>92.0</ele><time>2026-04-24T13:17:10.356Z</time></trkpt><trkpt lat="39.4607225" lon="9.6362801"><ele>91.5</ele><time>2026-04-24T13:17:12.349Z</time></trkpt><trkpt lat="39.4607991" lon="9.636369"><ele>91.0</ele><time>2026-04-24T13:17:15.347Z</time></trkpt><trkpt lat="39.4608443" lon="9.6364277"><ele>90.5</ele><time>2026-04-24T13:17:17.343Z</time></trkpt><trkpt lat="39.460886" lon="9.6364921"><ele>90.0</ele><time>2026-04-24T13:17:19.335Z</time></trkpt><trkpt lat="39.4609333" lon="9.6365802"><ele>90.0</ele><time>2026-04-24T13:17:21.351Z</time></trkpt><trkpt lat="39.4608981" lon="9.6366769"><ele>90.0</ele><time>2026-04-24T13:17:23.348Z</time></trkpt><trkpt lat="39.4608111" lon="9.6367411"><ele>90.0</ele><time>2026-04-24T13:17:25.341Z</time></trkpt><trkpt lat="39.4607481" lon="9.6367769"><ele>90.0</ele><time>2026-04-24T13:17:27.34Z</time></trkpt><trkpt lat="39.4606603" lon="9.6368281"><ele>90.0</ele><time>2026-04-24T13:17:30.346Z</time></trkpt><trkpt lat="39.4606056" lon="9.6368889"><ele>90.0</ele><time>2026-04-24T13:17:32.324Z</time></trkpt><trkpt lat="39.4605758" lon="9.6369843"><ele>89.6</ele><time>2026-04-24T13:17:34.336Z</time></trkpt><trkpt lat="39.4605645" lon="9.6370942"><ele>89.2</ele><time>2026-04-24T13:17:36.328Z</time></trkpt><trkpt lat="39.4605273" lon="9.6372204"><ele>88.80000000000001</ele><time>2026-04-24T13:17:38.335Z</time></trkpt><trkpt lat="39.4604963" lon="9.6373469"><ele>88.4</ele><time>2026-04-24T13:17:40.336Z</time></trkpt><trkpt lat="39.460468" lon="9.637478"><ele>88.0</ele><time>2026-04-24T13:17:42.333Z</time></trkpt><trkpt lat="39.4604517" lon="9.6375936"><ele>86.0</ele><time>2026-04-24T13:17:44.339Z</time></trkpt><trkpt lat="39.4604483" lon="9.6376936"><ele>84.0</ele><time>2026-04-24T13:17:46.294Z</time></trkpt><trkpt lat="39.4604375" lon="9.6377975"><ele>82.0</ele><time>2026-04-24T13:17:48.288Z</time></trkpt><trkpt lat="39.4604383" lon="9.6379152"><ele>80.0</ele><time>2026-04-24T13:17:50.323Z</time></trkpt><trkpt lat="39.4604422" lon="9.6380221"><ele>78.0</ele><time>2026-04-24T13:17:52.304Z</time></trkpt><trkpt lat="39.4604659" lon="9.6381007"><ele>76.0</ele><time>2026-04-24T13:17:55.314Z</time></trkpt><trkpt lat="39.4605372" lon="9.638076"><ele>76.0</ele><time>2026-04-24T13:17:58.316Z</time></trkpt><trkpt lat="39.4606296" lon="9.6381219"><ele>76.0</ele><time>2026-04-24T13:20:17.321Z</time></trkpt><trkpt lat="39.4607009" lon="9.6381433"><ele>76.0</ele><time>2026-04-24T13:20:20.334Z</time></trkpt><trkpt lat="39.4607657" lon="9.6381465"><ele>76.0</ele><time>2026-04-24T13:20:23.339Z</time></trkpt><trkpt lat="39.4608531" lon="9.6381446"><ele>76.0</ele><time>2026-04-24T13:20:26.339Z</time></trkpt><trkpt lat="39.4609299" lon="9.6381228"><ele>76.0</ele><time>2026-04-24T13:20:29.351Z</time></trkpt><trkpt lat="39.4610137" lon="9.6381337"><ele>76.0</ele><time>2026-04-24T13:20:32.314Z</time></trkpt><trkpt lat="39.4611095" lon="9.6381283"><ele>76.0</ele><time>2026-04-24T13:20:35.328Z</time></trkpt><trkpt lat="39.4612026" lon="9.6381229"><ele>76.0</ele><time>2026-04-24T13:20:38.326Z</time></trkpt><trkpt lat="39.4612787" lon="9.6381095"><ele>76.0</ele><time>2026-04-24T13:20:41.338Z</time></trkpt><trkpt lat="39.4613546" lon="9.6381106"><ele>76.0</ele><time>2026-04-24T13:20:44.343Z</time></trkpt><trkpt lat="39.4614398" lon="9.6381148"><ele>76.0</ele><time>2026-04-24T13:20:47.321Z</time></trkpt><trkpt lat="39.4615133" lon="9.6381211"><ele>78.16666666666666</ele><time>2026-04-24T13:20:49.36Z</time></trkpt><trkpt lat="39.4615906" lon="9.6381043"><ele>80.33333333333333</ele><time>2026-04-24T13:20:52.32Z</time></trkpt><trkpt lat="39.4616755" lon="9.638093"><ele>82.5</ele><time>2026-04-24T13:20:55.359Z</time></trkpt><trkpt lat="39.4617459" lon="9.6380908"><ele>84.66666666666667</ele><time>2026-04-24T13:20:58.334Z</time></trkpt><trkpt lat="39.4618259" lon="9.6380552"><ele>86.83333333333334</ele><time>2026-04-24T13:21:01.333Z</time></trkpt><trkpt lat="39.4618879" lon="9.6380782"><ele>89.0</ele><time>2026-04-24T13:21:04.351Z</time></trkpt><trkpt lat="39.4618781" lon="9.6381844"><ele>89.0</ele><time>2026-04-24T13:21:07.32Z</time></trkpt><trkpt lat="39.4618463" lon="9.6382797"><ele>89.0</ele><time>2026-04-24T13:21:09.35Z</time></trkpt><trkpt lat="39.4618017" lon="9.6383749"><ele>89.0</ele><time>2026-04-24T13:21:11.34Z</time></trkpt><trkpt lat="39.4617588" lon="9.6384616"><ele>89.0</ele><time>2026-04-24T13:21:13.339Z</time></trkpt><trkpt lat="39.4617245" lon="9.6385512"><ele>89.0</ele><time>2026-04-24T13:21:15.347Z</time></trkpt><trkpt lat="39.4617042" lon="9.6386321"><ele>89.0</ele><time>2026-04-24T13:21:17.335Z</time></trkpt><trkpt lat="39.4616862" lon="9.6387112"><ele>90.0</ele><time>2026-04-24T13:21:19.341Z</time></trkpt><trkpt lat="39.4616386" lon="9.6388072"><ele>91.0</ele><time>2026-04-24T13:21:22.356Z</time></trkpt><trkpt lat="39.4615671" lon="9.6388225"><ele>92.0</ele><time>2026-04-24T13:21:25.336Z</time></trkpt><trkpt lat="39.4614921" lon="9.6388095"><ele>93.0</ele><time>2026-04-24T13:21:29.335Z</time></trkpt><trkpt lat="39.4614025" lon="9.6388311"><ele>94.0</ele><time>2026-04-24T13:21:32.339Z</time></trkpt><trkpt lat="39.4613417" lon="9.638875"><ele>95.0</ele><time>2026-04-24T13:21:34.319Z</time></trkpt><trkpt lat="39.4612815" lon="9.6389218"><ele>91.42857142857143</ele><time>2026-04-24T13:21:36.347Z</time></trkpt><trkpt lat="39.4612241" lon="9.6389617"><ele>87.85714285714286</ele><time>2026-04-24T13:21:38.355Z</time></trkpt><trkpt lat="39.4611666" lon="9.6390087"><ele>84.28571428571428</ele><time>2026-04-24T13:21:45.322Z</time></trkpt><trkpt lat="39.4611039" lon="9.6390446"><ele>80.71428571428572</ele><time>2026-04-24T13:21:48.35Z</time></trkpt><trkpt lat="39.4610278" lon="9.6390903"><ele>77.14285714285714</ele><time>2026-04-24T13:21:51.355Z</time></trkpt><trkpt lat="39.4610011" lon="9.639178"><ele>73.57142857142857</ele><time>2026-04-24T13:22:03.339Z</time></trkpt><trkpt lat="39.4610214" lon="9.639271"><ele>70.0</ele><time>2026-04-24T13:22:09.351Z</time></trkpt><trkpt lat="39.4610414" lon="9.6393566"><ele>70.0</ele><time>2026-04-24T13:22:15.336Z</time></trkpt><trkpt lat="39.4610385" lon="9.6394448"><ele>70.0</ele><time>2026-04-24T13:22:19.341Z</time></trkpt><trkpt lat="39.46105" lon="9.6395315"><ele>70.0</ele><time>2026-04-24T13:22:24.344Z</time></trkpt><trkpt lat="39.461088" lon="9.6396108"><ele>70.0</ele><time>2026-04-24T13:22:30.353Z</time></trkpt><trkpt lat="39.461131" lon="9.6396903"><ele>70.0</ele><time>2026-04-24T13:22:36.338Z</time></trkpt><trkpt lat="39.4611571" lon="9.6397745"><ele>70.0</ele><time>2026-04-24T13:22:42.342Z</time></trkpt><trkpt lat="39.4612086" lon="9.6398452"><ele>70.0</ele><time>2026-04-24T13:22:48.335Z</time></trkpt><trkpt lat="39.4612451" lon="9.6399216"><ele>72.14285714285714</ele><time>2026-04-24T13:22:54.327Z</time></trkpt><trkpt lat="39.4612193" lon="9.6400108"><ele>74.28571428571428</ele><time>2026-04-24T13:23:00.366Z</time></trkpt><trkpt lat="39.4611643" lon="9.6400509"><ele>76.42857142857143</ele><time>2026-04-24T13:23:05.334Z</time></trkpt><trkpt lat="39.4610875" lon="9.6400435"><ele>78.57142857142857</ele><time>2026-04-24T13:23:11.341Z</time></trkpt><trkpt lat="39.4610191" lon="9.6400345"><ele>80.71428571428571</ele><time>2026-04-24T13:23:16.339Z</time></trkpt><trkpt lat="39.4609443" lon="9.6400242"><ele>82.85714285714286</ele><time>2026-04-24T13:23:22.326Z</time></trkpt><trkpt lat="39.4608815" lon="9.6400063"><ele>85.0</ele><time>2026-04-24T13:23:29.376Z</time></trkpt><trkpt lat="39.4608088" lon="9.6399987"><ele>85.0</ele><time>2026-04-24T13:23:36.349Z</time></trkpt><trkpt lat="39.460742" lon="9.6399706"><ele>85.0</ele><time>2026-04-24T13:23:39.324Z</time></trkpt><trkpt lat="39.4606721" lon="9.6399501"><ele>85.0</ele><time>2026-04-24T13:23:42.376Z</time></trkpt><trkpt lat="39.4605993" lon="9.6399355"><ele>85.0</ele><time>2026-04-24T13:23:44.358Z</time></trkpt><trkpt lat="39.4605077" lon="9.6399199"><ele>85.0</ele><time>2026-04-24T13:23:47.348Z</time></trkpt><trkpt lat="39.4604357" lon="9.639908"><ele>85.0</ele><time>2026-04-24T13:23:50.2Z</time></trkpt><trkpt lat="39.4603469" lon="9.6399098"><ele>83.57142857142857</ele><time>2026-04-24T13:23:53.34Z</time></trkpt><trkpt lat="39.460283" lon="9.6399172"><ele>82.14285714285714</ele><time>2026-04-24T13:23:56.331Z</time></trkpt><trkpt lat="39.460211" lon="9.6399239"><ele>80.71428571428571</ele><time>2026-04-24T13:24:00.262Z</time></trkpt><trkpt lat="39.4601465" lon="9.639951"><ele>79.28571428571428</ele><time>2026-04-24T13:24:03.335Z</time></trkpt><trkpt lat="39.460086" lon="9.6399922"><ele>77.85714285714286</ele><time>2026-04-24T13:25:31.368Z</time></trkpt><trkpt lat="39.4601544" lon="9.6400175"><ele>76.42857142857142</ele><time>2026-04-24T13:25:45.353Z</time></trkpt><trkpt lat="39.4602022" lon="9.6400797"><ele>75.0</ele><time>2026-04-24T13:25:52.344Z</time></trkpt><trkpt lat="39.4602604" lon="9.6401176"><ele>74.99999999999999</ele><time>2026-04-24T13:26:11.34Z</time></trkpt><trkpt lat="39.4603103" lon="9.6401781"><ele>75.0</ele><time>2026-04-24T13:26:25.353Z</time></trkpt><trkpt lat="39.4603689" lon="9.6401427"><ele>75.0</ele><time>2026-04-24T13:26:34.34Z</time></trkpt><trkpt lat="39.4604415" lon="9.640157"><ele>75.0</ele><time>2026-04-24T13:26:41.345Z</time></trkpt><trkpt lat="39.4605027" lon="9.6401845"><ele>75.0</ele><time>2026-04-24T13:26:47.337Z</time></trkpt><trkpt lat="39.4604564" lon="9.6402425"><ele>74.99999999999999</ele><time>2026-04-24T13:27:02.356Z</time></trkpt><trkpt lat="39.4604383" lon="9.6403228"><ele>75.0</ele><time>2026-04-24T13:27:15.359Z</time></trkpt><trkpt lat="39.4604351" lon="9.6404066"><ele>78.71428571428571</ele><time>2026-04-24T13:27:27.355Z</time></trkpt><trkpt lat="39.4604798" lon="9.6404646"><ele>82.42857142857143</ele><time>2026-04-24T13:27:38.357Z</time></trkpt><trkpt lat="39.4605301" lon="9.6405159"><ele>86.14285714285714</ele><time>2026-04-24T13:28:18.342Z</time></trkpt><trkpt lat="39.4604771" lon="9.6405768"><ele>89.85714285714286</ele><time>2026-04-24T13:28:28.348Z</time></trkpt><trkpt lat="39.4604252" lon="9.6406294"><ele>93.57142857142857</ele><time>2026-04-24T13:28:45.327Z</time></trkpt><trkpt lat="39.4604308" lon="9.6407261"><ele>97.28571428571428</ele><time>2026-04-24T13:28:59.337Z</time></trkpt><trkpt lat="39.4603942" lon="9.640799"><ele>101.0</ele><time>2026-04-24T13:29:16.276Z</time></trkpt><trkpt lat="39.4603335" lon="9.6408384"><ele>101.0</ele><time>2026-04-24T13:29:21.34Z</time></trkpt><trkpt lat="39.4602703" lon="9.6408678"><ele>101.0</ele><time>2026-04-24T13:29:27.334Z</time></trkpt><trkpt lat="39.4602336" lon="9.6409363"><ele>101.0</ele><time>2026-04-24T13:29:35.297Z</time></trkpt><trkpt lat="39.4601924" lon="9.6410017"><ele>101.0</ele><time>2026-04-24T13:29:46.349Z</time></trkpt><trkpt lat="39.4601387" lon="9.6410651"><ele>101.0</ele><time>2026-04-24T13:29:52.376Z</time></trkpt><trkpt lat="39.4600869" lon="9.6411163"><ele>101.0</ele><time>2026-04-24T13:29:58.344Z</time></trkpt><trkpt lat="39.4600992" lon="9.6412047"><ele>101.0</ele><time>2026-04-24T13:30:18.357Z</time></trkpt><trkpt lat="39.4600682" lon="9.6412847"><ele>102.71428571428571</ele><time>2026-04-24T13:30:24.374Z</time></trkpt><trkpt lat="39.4600281" lon="9.6413566"><ele>104.42857142857142</ele><time>2026-04-24T13:30:30.353Z</time></trkpt><trkpt lat="39.4599809" lon="9.6414153"><ele>106.14285714285714</ele><time>2026-04-24T13:30:35.345Z</time></trkpt><trkpt lat="39.459934" lon="9.6414778"><ele>107.85714285714286</ele><time>2026-04-24T13:30:41.349Z</time></trkpt><trkpt lat="39.4600069" lon="9.6414975"><ele>109.57142857142857</ele><time>2026-04-24T13:31:01.345Z</time></trkpt><trkpt lat="39.4600739" lon="9.6415197"><ele>111.28571428571429</ele><time>2026-04-24T13:31:20.274Z</time></trkpt><trkpt lat="39.4601358" lon="9.6415398"><ele>113.0</ele><time>2026-04-24T13:31:26.359Z</time></trkpt><trkpt lat="39.4601968" lon="9.6415666"><ele>113.0</ele><time>2026-04-24T13:31:34.388Z</time></trkpt><trkpt lat="39.46026" lon="9.6415345"><ele>113.0</ele><time>2026-04-24T13:31:43.344Z</time></trkpt><trkpt lat="39.460323" lon="9.6415189"><ele>113.0</ele><time>2026-04-24T13:31:55.351Z</time></trkpt><trkpt lat="39.4603923" lon="9.6415288"><ele>113.0</ele><time>2026-04-24T13:32:05.329Z</time></trkpt><trkpt lat="39.4604573" lon="9.641551"><ele>113.0</ele><time>2026-04-24T13:32:14.358Z</time></trkpt><trkpt lat="39.4605077" lon="9.6416055"><ele>113.0</ele><time>2026-04-24T13:32:23.336Z</time></trkpt><trkpt lat="39.460541" lon="9.641677"><ele>113.0</ele><time>2026-04-24T13:32:30.356Z</time></trkpt><trkpt lat="39.4605747" lon="9.6417557"><ele>112.85714285714286</ele><time>2026-04-24T13:32:38.347Z</time></trkpt><trkpt lat="39.4606298" lon="9.6417966"><ele>112.71428571428571</ele><time>2026-04-24T13:32:47.352Z</time></trkpt><trkpt lat="39.4606442" lon="9.6418822"><ele>112.57142857142857</ele><time>2026-04-24T13:33:02.364Z</time></trkpt><trkpt lat="39.460669" lon="9.6419646"><ele>112.42857142857143</ele><time>2026-04-24T13:33:09.361Z</time></trkpt><trkpt lat="39.4607387" lon="9.6418937"><ele>112.28571428571428</ele><time>2026-04-24T13:40:50.165Z</time></trkpt><trkpt lat="39.4608024" lon="9.6419342"><ele>112.14285714285714</ele><time>2026-04-24T13:41:05.417Z</time></trkpt><trkpt lat="39.4608655" lon="9.641959"><ele>112.0</ele><time>2026-04-24T13:41:08.373Z</time></trkpt><trkpt lat="39.4610206" lon="9.6420226"><ele>112.0</ele><time>2026-04-24T13:41:11.425Z</time></trkpt><trkpt lat="39.4610949" lon="9.642037"><ele>111.99999999999999</ele><time>2026-04-24T13:41:13.416Z</time></trkpt><trkpt lat="39.4611796" lon="9.6420453"><ele>111.99999999999999</ele><time>2026-04-24T13:41:15.409Z</time></trkpt><trkpt lat="39.4612809" lon="9.6420545"><ele>112.0</ele><time>2026-04-24T13:41:17.429Z</time></trkpt><trkpt lat="39.4614067" lon="9.6420529"><ele>112.0</ele><time>2026-04-24T13:41:19.422Z</time></trkpt><trkpt lat="39.4614884" lon="9.6420425"><ele>113.19999999999999</ele><time>2026-04-24T13:41:20.437Z</time></trkpt><trkpt lat="39.4615613" lon="9.6420231"><ele>114.39999999999999</ele><time>2026-04-24T13:41:21.404Z</time></trkpt><trkpt lat="39.4616292" lon="9.6419977"><ele>115.60000000000001</ele><time>2026-04-24T13:41:22.407Z</time></trkpt><trkpt lat="39.4616919" lon="9.6419547"><ele>116.80000000000001</ele><time>2026-04-24T13:41:23.424Z</time></trkpt><trkpt lat="39.4618052" lon="9.6419075"><ele>118.0</ele><time>2026-04-24T13:41:25.388Z</time></trkpt><trkpt lat="39.4619239" lon="9.641856"><ele>119.66666666666667</ele><time>2026-04-24T13:41:27.423Z</time></trkpt><trkpt lat="39.4620237" lon="9.6418016"><ele>121.33333333333334</ele><time>2026-04-24T13:41:29.44Z</time></trkpt><trkpt lat="39.4621094" lon="9.6417519"><ele>123.0</ele><time>2026-04-24T13:41:31.428Z</time></trkpt><trkpt lat="39.4621863" lon="9.6417106"><ele>124.66666666666666</ele><time>2026-04-24T13:41:33.408Z</time></trkpt><trkpt lat="39.4622613" lon="9.6416665"><ele>126.33333333333333</ele><time>2026-04-24T13:41:35.432Z</time></trkpt><trkpt lat="39.4623312" lon="9.6416218"><ele>128.0</ele><time>2026-04-24T13:41:37.443Z</time></trkpt><trkpt lat="39.4624121" lon="9.6415632"><ele>128.66666666666666</ele><time>2026-04-24T13:41:40.423Z</time></trkpt><trkpt lat="39.4624857" lon="9.6414859"><ele>129.33333333333331</ele><time>2026-04-24T13:41:43.417Z</time></trkpt><trkpt lat="39.462528" lon="9.6414073"><ele>130.0</ele><time>2026-04-24T13:41:46.435Z</time></trkpt><trkpt lat="39.4625543" lon="9.6412949"><ele>130.66666666666666</ele><time>2026-04-24T13:41:49.419Z</time></trkpt><trkpt lat="39.4625807" lon="9.6411865"><ele>131.33333333333334</ele><time>2026-04-24T13:41:52.309Z</time></trkpt><trkpt lat="39.4626047" lon="9.6411073"><ele>132.0</ele><time>2026-04-24T13:41:54.375Z</time></trkpt><trkpt lat="39.462632" lon="9.6410032"><ele>133.0</ele><time>2026-04-24T13:41:57.358Z</time></trkpt><trkpt lat="39.4626593" lon="9.6409196"><ele>134.0</ele><time>2026-04-24T13:42:00.365Z</time></trkpt><trkpt lat="39.4626894" lon="9.6408204"><ele>135.0</ele><time>2026-04-24T13:42:03.351Z</time></trkpt><trkpt lat="39.4626919" lon="9.6407123"><ele>136.0</ele><time>2026-04-24T13:42:06.374Z</time></trkpt><trkpt lat="39.4626563" lon="9.6405945"><ele>137.0</ele><time>2026-04-24T13:42:09.372Z</time></trkpt><trkpt lat="39.4626175" lon="9.6405138"><ele>138.0</ele><time>2026-04-24T13:42:11.376Z</time></trkpt><trkpt lat="39.4625764" lon="9.6404464"><ele>138.0</ele><time>2026-04-24T13:42:13.367Z</time></trkpt><trkpt lat="39.4625341" lon="9.6403756"><ele>138.0</ele><time>2026-04-24T13:42:15.367Z</time></trkpt><trkpt lat="39.4624983" lon="9.6402951"><ele>138.0</ele><time>2026-04-24T13:42:17.357Z</time></trkpt><trkpt lat="39.4624943" lon="9.6402082"><ele>138.0</ele><time>2026-04-24T13:42:19.373Z</time></trkpt><trkpt lat="39.462509" lon="9.6401216"><ele>138.0</ele><time>2026-04-24T13:42:21.374Z</time></trkpt><trkpt lat="39.4625274" lon="9.6400382"><ele>138.0</ele><time>2026-04-24T13:42:23.362Z</time></trkpt><trkpt lat="39.4625486" lon="9.6399581"><ele>138.0</ele><time>2026-04-24T13:42:25.374Z</time></trkpt><trkpt lat="39.4625775" lon="9.6398788"><ele>137.85714285714286</ele><time>2026-04-24T13:42:27.377Z</time></trkpt><trkpt lat="39.4626093" lon="9.6398046"><ele>137.71428571428572</ele><time>2026-04-24T13:42:29.362Z</time></trkpt><trkpt lat="39.4626474" lon="9.639727"><ele>137.57142857142858</ele><time>2026-04-24T13:42:31.39Z</time></trkpt><trkpt lat="39.4626817" lon="9.639645"><ele>137.42857142857144</ele><time>2026-04-24T13:42:33.401Z</time></trkpt><trkpt lat="39.4627235" lon="9.6395679"><ele>137.28571428571428</ele><time>2026-04-24T13:42:35.385Z</time></trkpt><trkpt lat="39.4627734" lon="9.6394983"><ele>137.14285714285717</ele><time>2026-04-24T13:42:37.376Z</time></trkpt><trkpt lat="39.4628368" lon="9.639447"><ele>137.0</ele><time>2026-04-24T13:42:39.354Z</time></trkpt><trkpt lat="39.4628954" lon="9.6393855"><ele>139.42857142857144</ele><time>2026-04-24T13:42:41.367Z</time></trkpt><trkpt lat="39.4629564" lon="9.6393313"><ele>141.85714285714286</ele><time>2026-04-24T13:42:43.365Z</time></trkpt><trkpt lat="39.4630074" lon="9.639274"><ele>144.28571428571428</ele><time>2026-04-24T13:42:45.353Z</time></trkpt><trkpt lat="39.4630422" lon="9.6391948"><ele>146.71428571428572</ele><time>2026-04-24T13:42:47.362Z</time></trkpt><trkpt lat="39.4630565" lon="9.6391033"><ele>149.14285714285714</ele><time>2026-04-24T13:42:49.369Z</time></trkpt><trkpt lat="39.4630663" lon="9.6390032"><ele>151.57142857142858</ele><time>2026-04-24T13:42:51.369Z</time></trkpt><trkpt lat="39.4630852" lon="9.638904"><ele>154.0</ele><time>2026-04-24T13:42:53.365Z</time></trkpt><trkpt lat="39.4631147" lon="9.6388169"><ele>154.0</ele><time>2026-04-24T13:42:55.377Z</time></trkpt><trkpt lat="39.4631489" lon="9.638698"><ele>154.0</ele><time>2026-04-24T13:42:58.372Z</time></trkpt><trkpt lat="39.4631606" lon="9.6386061"><ele>154.0</ele><time>2026-04-24T13:43:00.375Z</time></trkpt><trkpt lat="39.4631618" lon="9.638516"><ele>154.0</ele><time>2026-04-24T13:43:02.362Z</time></trkpt><trkpt lat="39.4631647" lon="9.6384162"><ele>154.0</ele><time>2026-04-24T13:43:04.369Z</time></trkpt><trkpt lat="39.4631545" lon="9.63831"><ele>154.0</ele><time>2026-04-24T13:43:06.364Z</time></trkpt><trkpt lat="39.4631517" lon="9.6382185"><ele>153.0</ele><time>2026-04-24T13:43:08.375Z</time></trkpt><trkpt lat="39.4631664" lon="9.6381268"><ele>152.0</ele><time>2026-04-24T13:43:10.361Z</time></trkpt><trkpt lat="39.4631869" lon="9.6380254"><ele>151.0</ele><time>2026-04-24T13:43:12.377Z</time></trkpt><trkpt lat="39.4632113" lon="9.6379341"><ele>150.0</ele><time>2026-04-24T13:43:14.374Z</time></trkpt><trkpt lat="39.4632509" lon="9.6378316"><ele>149.0</ele><time>2026-04-24T13:43:16.363Z</time></trkpt><trkpt lat="39.463289" lon="9.6377247"><ele>148.0</ele><time>2026-04-24T13:43:18.385Z</time></trkpt><trkpt lat="39.4633332" lon="9.6376169"><ele>147.20000000000002</ele><time>2026-04-24T13:43:20.383Z</time></trkpt><trkpt lat="39.4633764" lon="9.6375114"><ele>146.4</ele><time>2026-04-24T13:43:22.378Z</time></trkpt><trkpt lat="39.4633891" lon="9.6374111"><ele>145.60000000000002</ele><time>2026-04-24T13:43:24.367Z</time></trkpt><trkpt lat="39.4633649" lon="9.637304"><ele>144.8</ele><time>2026-04-24T13:43:26.365Z</time></trkpt><trkpt lat="39.4633076" lon="9.6371986"><ele>144.0</ele><time>2026-04-24T13:43:28.36Z</time></trkpt><trkpt lat="39.4632165" lon="9.6371109"><ele>144.0</ele><time>2026-04-24T13:43:30.375Z</time></trkpt><trkpt lat="39.4631221" lon="9.6370314"><ele>144.0</ele><time>2026-04-24T13:43:32.35Z</time></trkpt><trkpt lat="39.4630276" lon="9.6369671"><ele>144.0</ele><time>2026-04-24T13:43:34.384Z</time></trkpt><trkpt lat="39.4629359" lon="9.6368992"><ele>144.0</ele><time>2026-04-24T13:43:36.363Z</time></trkpt><trkpt lat="39.4628533" lon="9.6368343"><ele>144.0</ele><time>2026-04-24T13:43:38.362Z</time></trkpt><trkpt lat="39.4627703" lon="9.6367647"><ele>143.0</ele><time>2026-04-24T13:43:40.361Z</time></trkpt><trkpt lat="39.4626905" lon="9.6366995"><ele>142.0</ele><time>2026-04-24T13:43:42.375Z</time></trkpt><trkpt lat="39.4626059" lon="9.6366285"><ele>141.0</ele><time>2026-04-24T13:43:44.387Z</time></trkpt><trkpt lat="39.4625201" lon="9.6365562"><ele>140.0</ele><time>2026-04-24T13:43:46.387Z</time></trkpt><trkpt lat="39.4624349" lon="9.6364932"><ele>139.0</ele><time>2026-04-24T13:43:48.394Z</time></trkpt><trkpt lat="39.4623468" lon="9.6364316"><ele>139.0</ele><time>2026-04-24T13:43:50.378Z</time></trkpt><trkpt lat="39.4622617" lon="9.6363603"><ele>139.0</ele><time>2026-04-24T13:43:52.385Z</time></trkpt><trkpt lat="39.4622004" lon="9.6362738"><ele>139.0</ele><time>2026-04-24T13:43:54.354Z</time></trkpt><trkpt lat="39.462153" lon="9.6361792"><ele>139.0</ele><time>2026-04-24T13:43:56.354Z</time></trkpt><trkpt lat="39.4621157" lon="9.6360829"><ele>139.0</ele><time>2026-04-24T13:43:58.373Z</time></trkpt><trkpt lat="39.4620802" lon="9.635984"><ele>139.0</ele><time>2026-04-24T13:44:00.373Z</time></trkpt><trkpt lat="39.4620417" lon="9.6358845"><ele>136.6</ele><time>2026-04-24T13:44:02.371Z</time></trkpt><trkpt lat="39.4619883" lon="9.6357921"><ele>134.2</ele><time>2026-04-24T13:44:04.376Z</time></trkpt><trkpt lat="39.4619184" lon="9.6357061"><ele>131.79999999999998</ele><time>2026-04-24T13:44:06.369Z</time></trkpt><trkpt lat="39.4618602" lon="9.6356053"><ele>129.4</ele><time>2026-04-24T13:44:08.366Z</time></trkpt><trkpt lat="39.4618172" lon="9.6355028"><ele>127.0</ele><time>2026-04-24T13:44:10.342Z</time></trkpt><trkpt lat="39.4617767" lon="9.6353874"><ele>130.79999999999998</ele><time>2026-04-24T13:44:12.377Z</time></trkpt><trkpt lat="39.4617322" lon="9.6352701"><ele>134.6</ele><time>2026-04-24T13:44:14.375Z</time></trkpt><trkpt lat="39.461682" lon="9.6351628"><ele>138.39999999999998</ele><time>2026-04-24T13:44:16.395Z</time></trkpt><trkpt lat="39.4616124" lon="9.6350656"><ele>142.2</ele><time>2026-04-24T13:44:18.368Z</time></trkpt><trkpt lat="39.4615224" lon="9.6349769"><ele>146.0</ele><time>2026-04-24T13:44:20.364Z</time></trkpt><trkpt lat="39.4614278" lon="9.6349121"><ele>146.0</ele><time>2026-04-24T13:44:22.375Z</time></trkpt><trkpt lat="39.4613255" lon="9.6348523"><ele>146.0</ele><time>2026-04-24T13:44:24.373Z</time></trkpt><trkpt lat="39.4612268" lon="9.6347961"><ele>146.0</ele><time>2026-04-24T13:44:26.361Z</time></trkpt><trkpt lat="39.4611251" lon="9.6347367"><ele>146.0</ele><time>2026-04-24T13:44:28.371Z</time></trkpt><trkpt lat="39.4610183" lon="9.6346848"><ele>146.0</ele><time>2026-04-24T13:44:30.371Z</time></trkpt><trkpt lat="39.460911" lon="9.63464"><ele>141.8</ele><time>2026-04-24T13:44:32.367Z</time></trkpt><trkpt lat="39.4608031" lon="9.6346104"><ele>137.6</ele><time>2026-04-24T13:44:34.376Z</time></trkpt><trkpt lat="39.4606907" lon="9.6345888"><ele>133.4</ele><time>2026-04-24T13:44:36.372Z</time></trkpt><trkpt lat="39.4605831" lon="9.6345937"><ele>129.2</ele><time>2026-04-24T13:44:38.377Z</time></trkpt><trkpt lat="39.4604822" lon="9.6346134"><ele>125.0</ele><time>2026-04-24T13:44:40.375Z</time></trkpt><trkpt lat="39.4603717" lon="9.6346522"><ele>123.0</ele><time>2026-04-24T13:44:42.374Z</time></trkpt><trkpt lat="39.4602704" lon="9.634685"><ele>121.0</ele><time>2026-04-24T13:44:44.356Z</time></trkpt><trkpt lat="39.4601799" lon="9.6347103"><ele>119.0</ele><time>2026-04-24T13:44:46.375Z</time></trkpt><trkpt lat="39.4600846" lon="9.6347353"><ele>117.0</ele><time>2026-04-24T13:44:48.357Z</time></trkpt><trkpt lat="39.4599987" lon="9.6347577"><ele>115.0</ele><time>2026-04-24T13:44:50.38Z</time></trkpt><trkpt lat="39.4599145" lon="9.6347756"><ele>115.0</ele><time>2026-04-24T13:44:52.383Z</time></trkpt><trkpt lat="39.4598237" lon="9.6347927"><ele>115.0</ele><time>2026-04-24T13:44:54.355Z</time></trkpt><trkpt lat="39.4597416" lon="9.6348398"><ele>115.0</ele><time>2026-04-24T13:44:56.394Z</time></trkpt><trkpt lat="39.4596652" lon="9.6348989"><ele>115.0</ele><time>2026-04-24T13:44:58.38Z</time></trkpt><trkpt lat="39.4595901" lon="9.6349781"><ele>115.0</ele><time>2026-04-24T13:45:00.38Z</time></trkpt><trkpt lat="39.4595209" lon="9.6350591"><ele>115.00000000000001</ele><time>2026-04-24T13:45:02.382Z</time></trkpt><trkpt lat="39.4594862" lon="9.6351576"><ele>115.0</ele><time>2026-04-24T13:45:04.387Z</time></trkpt><trkpt lat="39.4594457" lon="9.6352771"><ele>115.0</ele><time>2026-04-24T13:45:07.37Z</time></trkpt><trkpt lat="39.4594083" lon="9.6353606"><ele>115.0</ele><time>2026-04-24T13:45:09.367Z</time></trkpt><trkpt lat="39.4593787" lon="9.6354328"><ele>115.00000000000001</ele><time>2026-04-24T13:45:11.391Z</time></trkpt><trkpt lat="39.459347" lon="9.6355332"><ele>115.0</ele><time>2026-04-24T13:45:13.371Z</time></trkpt><trkpt lat="39.4593371" lon="9.6356392"><ele>114.2</ele><time>2026-04-24T13:45:15.368Z</time></trkpt><trkpt lat="39.4593431" lon="9.6357405"><ele>113.4</ele><time>2026-04-24T13:45:17.376Z</time></trkpt><trkpt lat="39.4593464" lon="9.6358743"><ele>112.6</ele><time>2026-04-24T13:45:19.369Z</time></trkpt><trkpt lat="39.4593622" lon="9.6360081"><ele>111.8</ele><time>2026-04-24T13:45:21.363Z</time></trkpt><trkpt lat="39.4593711" lon="9.63614"><ele>111.0</ele><time>2026-04-24T13:45:23.382Z</time></trkpt><trkpt lat="39.459391" lon="9.6362673"><ele>109.19999999999999</ele><time>2026-04-24T13:45:25.364Z</time></trkpt><trkpt lat="39.4593927" lon="9.6363813"><ele>107.39999999999999</ele><time>2026-04-24T13:45:27.359Z</time></trkpt><trkpt lat="39.4593801" lon="9.6365039"><ele>105.6</ele><time>2026-04-24T13:45:29.368Z</time></trkpt><trkpt lat="39.4593226" lon="9.6366356"><ele>103.8</ele><time>2026-04-24T13:45:31.354Z</time></trkpt><trkpt lat="39.4592421" lon="9.6367502"><ele>102.0</ele><time>2026-04-24T13:45:33.375Z</time></trkpt><trkpt lat="39.459172" lon="9.6368694"><ele>102.0</ele><time>2026-04-24T13:45:35.378Z</time></trkpt><trkpt lat="39.4591304" lon="9.6369617"><ele>102.0</ele><time>2026-04-24T13:45:37.357Z</time></trkpt><trkpt lat="39.4590682" lon="9.637088"><ele>102.0</ele><time>2026-04-24T13:45:39.358Z</time></trkpt><trkpt lat="39.458995" lon="9.6371971"><ele>102.0</ele><time>2026-04-24T13:45:41.379Z</time></trkpt><trkpt lat="39.4589323" lon="9.6373168"><ele>102.0</ele><time>2026-04-24T13:45:43.374Z</time></trkpt><trkpt lat="39.4588741" lon="9.6374404"><ele>99.8</ele><time>2026-04-24T13:45:45.364Z</time></trkpt><trkpt lat="39.4587982" lon="9.6375561"><ele>97.6</ele><time>2026-04-24T13:45:47.364Z</time></trkpt><trkpt lat="39.4587395" lon="9.6376519"><ele>95.39999999999999</ele><time>2026-04-24T13:45:49.374Z</time></trkpt><trkpt lat="39.4586743" lon="9.6377604"><ele>93.19999999999999</ele><time>2026-04-24T13:45:51.403Z</time></trkpt><trkpt lat="39.4586268" lon="9.6378567"><ele>91.0</ele><time>2026-04-24T13:45:53.371Z</time></trkpt><trkpt lat="39.4585775" lon="9.6379462"><ele>91.0</ele><time>2026-04-24T13:45:55.351Z</time></trkpt><trkpt lat="39.4585093" lon="9.6379596"><ele>91.0</ele><time>2026-04-24T13:45:57.377Z</time></trkpt><trkpt lat="39.4584131" lon="9.6378874"><ele>91.0</ele><time>2026-04-24T13:45:59.363Z</time></trkpt><trkpt lat="39.458333" lon="9.6378228"><ele>91.0</ele><time>2026-04-24T13:46:01.384Z</time></trkpt><trkpt lat="39.4582469" lon="9.6377661"><ele>91.0</ele><time>2026-04-24T13:46:03.381Z</time></trkpt><trkpt lat="39.4581682" lon="9.6377129"><ele>91.0</ele><time>2026-04-24T13:46:05.39Z</time></trkpt><trkpt lat="39.4580684" lon="9.6377172"><ele>91.0</ele><time>2026-04-24T13:46:07.371Z</time></trkpt><trkpt lat="39.4579453" lon="9.6377286"><ele>91.0</ele><time>2026-04-24T13:46:09.368Z</time></trkpt><trkpt lat="39.4578363" lon="9.6377319"><ele>91.0</ele><time>2026-04-24T13:46:11.373Z</time></trkpt><trkpt lat="39.4577256" lon="9.6377246"><ele>91.0</ele><time>2026-04-24T13:46:13.384Z</time></trkpt><trkpt lat="39.4576345" lon="9.637718"><ele>88.2</ele><time>2026-04-24T13:46:15.387Z</time></trkpt><trkpt lat="39.457544" lon="9.6376773"><ele>85.39999999999999</ele><time>2026-04-24T13:46:17.395Z</time></trkpt><trkpt lat="39.4574553" lon="9.6375764"><ele>82.6</ele><time>2026-04-24T13:46:19.377Z</time></trkpt><trkpt lat="39.4573868" lon="9.6374826"><ele>79.8</ele><time>2026-04-24T13:46:21.387Z</time></trkpt><trkpt lat="39.4573118" lon="9.6374506"><ele>77.0</ele><time>2026-04-24T13:46:23.381Z</time></trkpt><trkpt lat="39.4572435" lon="9.6374538"><ele>77.0</ele><time>2026-04-24T13:46:25.384Z</time></trkpt><trkpt lat="39.4571546" lon="9.6374608"><ele>77.0</ele><time>2026-04-24T13:46:27.377Z</time></trkpt><trkpt lat="39.4570702" lon="9.6374464"><ele>77.0</ele><time>2026-04-24T13:46:29.387Z</time></trkpt><trkpt lat="39.4569919" lon="9.6374038"><ele>77.0</ele><time>2026-04-24T13:46:31.375Z</time></trkpt><trkpt lat="39.4569065" lon="9.6373364"><ele>77.0</ele><time>2026-04-24T13:46:33.363Z</time></trkpt><trkpt lat="39.4568406" lon="9.6372541"><ele>74.33333333333334</ele><time>2026-04-24T13:46:35.379Z</time></trkpt><trkpt lat="39.4567853" lon="9.6371915"><ele>71.66666666666667</ele><time>2026-04-24T13:46:37.374Z</time></trkpt><trkpt lat="39.4567299" lon="9.6371222"><ele>69.0</ele><time>2026-04-24T13:46:39.372Z</time></trkpt><trkpt lat="39.456669" lon="9.6370531"><ele>66.33333333333333</ele><time>2026-04-24T13:46:41.384Z</time></trkpt><trkpt lat="39.456612" lon="9.636989"><ele>63.666666666666664</ele><time>2026-04-24T13:46:43.369Z</time></trkpt><trkpt lat="39.4565646" lon="9.6369028"><ele>61.0</ele><time>2026-04-24T13:46:45.381Z</time></trkpt><trkpt lat="39.4565343" lon="9.6367843"><ele>60.99999999999999</ele><time>2026-04-24T13:46:47.364Z</time></trkpt><trkpt lat="39.4565116" lon="9.6366642"><ele>61.0</ele><time>2026-04-24T13:46:49.35Z</time></trkpt><trkpt lat="39.4564772" lon="9.6365684"><ele>61.0</ele><time>2026-04-24T13:46:51.37Z</time></trkpt><trkpt lat="39.4564008" lon="9.6364857"><ele>61.0</ele><time>2026-04-24T13:46:54.378Z</time></trkpt><trkpt lat="39.4563169" lon="9.6364329"><ele>60.99999999999999</ele><time>2026-04-24T13:46:56.387Z</time></trkpt><trkpt lat="39.4562454" lon="9.6364099"><ele>61.0</ele><time>2026-04-24T13:46:58.381Z</time></trkpt><trkpt lat="39.4561529" lon="9.6363982"><ele>58.33333333333333</ele><time>2026-04-24T13:47:00.35Z</time></trkpt><trkpt lat="39.456034" lon="9.6363951"><ele>55.666666666666664</ele><time>2026-04-24T13:47:02.374Z</time></trkpt><trkpt lat="39.4559702" lon="9.6363883"><ele>53.0</ele><time>2026-04-24T13:47:03.392Z</time></trkpt><trkpt lat="39.4559028" lon="9.6363822"><ele>50.33333333333333</ele><time>2026-04-24T13:47:04.376Z</time></trkpt><trkpt lat="39.4558358" lon="9.6363643"><ele>47.666666666666664</ele><time>2026-04-24T13:47:05.387Z</time></trkpt><trkpt lat="39.4557159" lon="9.636317"><ele>45.0</ele><time>2026-04-24T13:47:07.386Z</time></trkpt><trkpt lat="39.4556176" lon="9.6362674"><ele>45.0</ele><time>2026-04-24T13:47:09.388Z</time></trkpt><trkpt lat="39.4555584" lon="9.6362387"><ele>45.0</ele><time>2026-04-24T13:47:10.396Z</time></trkpt><trkpt lat="39.4554441" lon="9.6361765"><ele>45.0</ele><time>2026-04-24T13:47:12.359Z</time></trkpt><trkpt lat="39.4553471" lon="9.6360981"><ele>45.0</ele><time>2026-04-24T13:47:14.383Z</time></trkpt><trkpt lat="39.4552748" lon="9.6359876"><ele>45.0</ele><time>2026-04-24T13:47:16.394Z</time></trkpt><trkpt lat="39.4552286" lon="9.6358934"><ele>43.0</ele><time>2026-04-24T13:47:18.388Z</time></trkpt><trkpt lat="39.4551959" lon="9.6357919"><ele>41.0</ele><time>2026-04-24T13:47:20.375Z</time></trkpt><trkpt lat="39.4551757" lon="9.6356791"><ele>39.0</ele><time>2026-04-24T13:47:22.386Z</time></trkpt><trkpt lat="39.4551443" lon="9.6355743"><ele>37.0</ele><time>2026-04-24T13:47:24.393Z</time></trkpt><trkpt lat="39.455108" lon="9.6354914"><ele>35.0</ele><time>2026-04-24T13:47:26.37Z</time></trkpt><trkpt lat="39.4550257" lon="9.6354345"><ele>33.0</ele><time>2026-04-24T13:47:29.368Z</time></trkpt><trkpt lat="39.454917" lon="9.6354335"><ele>33.0</ele><time>2026-04-24T13:47:31.379Z</time></trkpt><trkpt lat="39.4547911" lon="9.6354447"><ele>33.0</ele><time>2026-04-24T13:47:33.379Z</time></trkpt><trkpt lat="39.4546803" lon="9.6354399"><ele>33.0</ele><time>2026-04-24T13:47:35.389Z</time></trkpt><trkpt lat="39.4545906" lon="9.6354459"><ele>33.0</ele><time>2026-04-24T13:47:37.365Z</time></trkpt><trkpt lat="39.4545" lon="9.6354452"><ele>33.0</ele><time>2026-04-24T13:47:39.383Z</time></trkpt><trkpt lat="39.4544283" lon="9.6354339"><ele>31.833333333333332</ele><time>2026-04-24T13:47:41.384Z</time></trkpt><trkpt lat="39.4543557" lon="9.6354306"><ele>30.666666666666664</ele><time>2026-04-24T13:48:20.384Z</time></trkpt><trkpt lat="39.4542813" lon="9.6354264"><ele>29.5</ele><time>2026-04-24T13:48:22.359Z</time></trkpt><trkpt lat="39.4541931" lon="9.635436"><ele>28.333333333333332</ele><time>2026-04-24T13:48:24.381Z</time></trkpt><trkpt lat="39.4540868" lon="9.6354589"><ele>27.166666666666664</ele><time>2026-04-24T13:48:26.376Z</time></trkpt><trkpt lat="39.4540192" lon="9.6354736"><ele>26.0</ele><time>2026-04-24T13:48:28.368Z</time></trkpt><trkpt lat="39.4539535" lon="9.6354928"><ele>26.0</ele><time>2026-04-24T13:48:30.383Z</time></trkpt><trkpt lat="39.4539121" lon="9.6356001"><ele>26.0</ele><time>2026-04-24T13:48:34.378Z</time></trkpt><trkpt lat="39.4538953" lon="9.6357233"><ele>26.0</ele><time>2026-04-24T13:48:36.387Z</time></trkpt><trkpt lat="39.4538869" lon="9.6358409"><ele>26.0</ele><time>2026-04-24T13:48:38.376Z</time></trkpt><trkpt lat="39.4538878" lon="9.6359526"><ele>26.0</ele><time>2026-04-24T13:48:40.367Z</time></trkpt><trkpt lat="39.4538978" lon="9.6360629"><ele>26.0</ele><time>2026-04-24T13:48:42.377Z</time></trkpt><trkpt lat="39.4539037" lon="9.6361915"><ele>26.0</ele><time>2026-04-24T13:48:44.32Z</time></trkpt><trkpt lat="39.4539102" lon="9.6363481"><ele>26.0</ele><time>2026-04-24T13:48:46.37Z</time></trkpt><trkpt lat="39.4539113" lon="9.636431"><ele>26.0</ele><time>2026-04-24T13:48:47.378Z</time></trkpt><trkpt lat="39.4539109" lon="9.6365159"><ele>26.0</ele><time>2026-04-24T13:48:48.38Z</time></trkpt><trkpt lat="39.4539102" lon="9.6366672"><ele>26.0</ele><time>2026-04-24T13:48:50.375Z</time></trkpt><trkpt lat="39.4539125" lon="9.6368187"><ele>26.0</ele><time>2026-04-24T13:48:52.381Z</time></trkpt><trkpt lat="39.4539082" lon="9.6369484"><ele>26.0</ele><time>2026-04-24T13:48:54.372Z</time></trkpt><trkpt lat="39.4539089" lon="9.6370581"><ele>26.0</ele><time>2026-04-24T13:48:56.4Z</time></trkpt><trkpt lat="39.4539086" lon="9.6371765"><ele>26.0</ele><time>2026-04-24T13:48:58.372Z</time></trkpt><trkpt lat="39.4539059" lon="9.6373106"><ele>25.8</ele><time>2026-04-24T13:49:00.384Z</time></trkpt><trkpt lat="39.4539023" lon="9.6374306"><ele>25.6</ele><time>2026-04-24T13:49:02.374Z</time></trkpt><trkpt lat="39.45389" lon="9.6375451"><ele>25.4</ele><time>2026-04-24T13:49:04.379Z</time></trkpt><trkpt lat="39.4538433" lon="9.6376456"><ele>25.2</ele><time>2026-04-24T13:49:06.374Z</time></trkpt><trkpt lat="39.4537499" lon="9.6376987"><ele>25.0</ele><time>2026-04-24T13:49:08.381Z</time></trkpt><trkpt lat="39.4536427" lon="9.6376329"><ele>24.2</ele><time>2026-04-24T13:49:10.385Z</time></trkpt><trkpt lat="39.4535357" lon="9.6375531"><ele>23.4</ele><time>2026-04-24T13:49:12.355Z</time></trkpt><trkpt lat="39.4534338" lon="9.6374982"><ele>22.6</ele><time>2026-04-24T13:49:14.388Z</time></trkpt><trkpt lat="39.4533289" lon="9.63745"><ele>21.8</ele><time>2026-04-24T13:49:16.384Z</time></trkpt><trkpt lat="39.4532286" lon="9.6374171"><ele>21.0</ele><time>2026-04-24T13:49:18.385Z</time></trkpt><trkpt lat="39.4531238" lon="9.6373904"><ele>21.0</ele><time>2026-04-24T13:49:20.354Z</time></trkpt><trkpt lat="39.453014" lon="9.6373529"><ele>21.0</ele><time>2026-04-24T13:49:22.382Z</time></trkpt><trkpt lat="39.4529089" lon="9.6373075"><ele>21.0</ele><time>2026-04-24T13:49:24.376Z</time></trkpt><trkpt lat="39.4528046" lon="9.6372705"><ele>21.0</ele><time>2026-04-24T13:49:26.375Z</time></trkpt><trkpt lat="39.4527037" lon="9.6372374"><ele>21.0</ele><time>2026-04-24T13:49:28.388Z</time></trkpt><trkpt lat="39.4525995" lon="9.6372059"><ele>20.400000000000002</ele><time>2026-04-24T13:49:30.379Z</time></trkpt><trkpt lat="39.4524962" lon="9.6371705"><ele>19.8</ele><time>2026-04-24T13:49:32.368Z</time></trkpt><trkpt lat="39.4523912" lon="9.6371264"><ele>19.200000000000003</ele><time>2026-04-24T13:49:34.387Z</time></trkpt><trkpt lat="39.4522928" lon="9.6370888"><ele>18.6</ele><time>2026-04-24T13:49:36.381Z</time></trkpt><trkpt lat="39.4522045" lon="9.6370514"><ele>18.0</ele><time>2026-04-24T13:49:38.377Z</time></trkpt><trkpt lat="39.4521087" lon="9.6370193"><ele>17.6</ele><time>2026-04-24T13:49:40.394Z</time></trkpt><trkpt lat="39.4520064" lon="9.6369847"><ele>17.200000000000003</ele><time>2026-04-24T13:49:42.374Z</time></trkpt><trkpt lat="39.4518984" lon="9.6369522"><ele>16.8</ele><time>2026-04-24T13:49:44.378Z</time></trkpt><trkpt lat="39.4517912" lon="9.6369143"><ele>16.400000000000002</ele><time>2026-04-24T13:49:46.371Z</time></trkpt><trkpt lat="39.4516812" lon="9.6368741"><ele>16.0</ele><time>2026-04-24T13:49:48.379Z</time></trkpt><trkpt lat="39.4515803" lon="9.6368386"><ele>15.75</ele><time>2026-04-24T13:49:50.386Z</time></trkpt><trkpt lat="39.4514669" lon="9.6368023"><ele>15.5</ele><time>2026-04-24T13:49:52.393Z</time></trkpt><trkpt lat="39.4513551" lon="9.6367617"><ele>15.25</ele><time>2026-04-24T13:49:54.365Z</time></trkpt><trkpt lat="39.4512394" lon="9.6367161"><ele>15.0</ele><time>2026-04-24T13:49:56.358Z</time></trkpt><trkpt lat="39.4511217" lon="9.636681"><ele>14.666666666666666</ele><time>2026-04-24T13:49:58.381Z</time></trkpt><trkpt lat="39.4510602" lon="9.6366614"><ele>14.333333333333332</ele><time>2026-04-24T13:49:59.366Z</time></trkpt><trkpt lat="39.4509959" lon="9.6366412"><ele>14.0</ele><time>2026-04-24T13:50:00.393Z</time></trkpt><trkpt lat="39.4508961" lon="9.6366053"><ele>13.666666666666666</ele><time>2026-04-24T13:50:02.375Z</time></trkpt><trkpt lat="39.4508007" lon="9.6365662"><ele>13.333333333333332</ele><time>2026-04-24T13:50:04.385Z</time></trkpt><trkpt lat="39.4507055" lon="9.6365306"><ele>13.0</ele><time>2026-04-24T13:50:06.368Z</time></trkpt><trkpt lat="39.4506035" lon="9.6364972"><ele>13.0</ele><time>2026-04-24T13:50:08.355Z</time></trkpt><trkpt lat="39.4504947" lon="9.6364884"><ele>13.0</ele><time>2026-04-24T13:50:10.379Z</time></trkpt><trkpt lat="39.4503859" lon="9.6365131"><ele>13.0</ele><time>2026-04-24T13:50:12.376Z</time></trkpt><trkpt lat="39.4503252" lon="9.6365424"><ele>13.0</ele><time>2026-04-24T13:50:13.385Z</time></trkpt><trkpt lat="39.4502121" lon="9.6366055"><ele>13.0</ele><time>2026-04-24T13:50:15.373Z</time></trkpt><trkpt lat="39.4501546" lon="9.636648"><ele>12.333333333333332</ele><time>2026-04-24T13:50:16.382Z</time></trkpt><trkpt lat="39.4500928" lon="9.6366935"><ele>11.666666666666666</ele><time>2026-04-24T13:50:17.394Z</time></trkpt><trkpt lat="39.4500329" lon="9.6367415"><ele>11.0</ele><time>2026-04-24T13:50:18.362Z</time></trkpt><trkpt lat="39.4499673" lon="9.6367945"><ele>10.333333333333332</ele><time>2026-04-24T13:50:19.376Z</time></trkpt><trkpt lat="39.4499056" lon="9.6368525"><ele>9.666666666666666</ele><time>2026-04-24T13:50:20.373Z</time></trkpt><trkpt lat="39.4498441" lon="9.6369154"><ele>9.0</ele><time>2026-04-24T13:50:21.379Z</time></trkpt><trkpt lat="39.4497809" lon="9.6369862"><ele>8.714285714285715</ele><time>2026-04-24T13:50:22.374Z</time></trkpt><trkpt lat="39.4497286" lon="9.6370573"><ele>8.428571428571429</ele><time>2026-04-24T13:50:23.39Z</time></trkpt><trkpt lat="39.4496865" lon="9.6371307"><ele>8.142857142857142</ele><time>2026-04-24T13:50:24.365Z</time></trkpt><trkpt lat="39.4496472" lon="9.6372109"><ele>7.857142857142858</ele><time>2026-04-24T13:50:25.38Z</time></trkpt><trkpt lat="39.4496061" lon="9.6372972"><ele>7.571428571428571</ele><time>2026-04-24T13:50:26.392Z</time></trkpt><trkpt lat="39.4495666" lon="9.6373762"><ele>7.285714285714286</ele><time>2026-04-24T13:50:27.391Z</time></trkpt><trkpt lat="39.4495282" lon="9.6374409"><ele>7.0</ele><time>2026-04-24T13:50:28.367Z</time></trkpt><trkpt lat="39.4494832" lon="9.6375003"><ele>7.0</ele><time>2026-04-24T13:50:29.373Z</time></trkpt><trkpt lat="39.4494288" lon="9.6375478"><ele>7.0</ele><time>2026-04-24T13:50:30.38Z</time></trkpt><trkpt lat="39.4493563" lon="9.637576"><ele>7.0</ele><time>2026-04-24T13:50:31.352Z</time></trkpt><trkpt lat="39.4492798" lon="9.6375861"><ele>7.0</ele><time>2026-04-24T13:50:32.381Z</time></trkpt><trkpt lat="39.4492189" lon="9.6375636"><ele>7.0</ele><time>2026-04-24T13:50:33.384Z</time></trkpt><trkpt lat="39.4491599" lon="9.6375208"><ele>7.0</ele><time>2026-04-24T13:50:34.396Z</time></trkpt><trkpt lat="39.4491033" lon="9.6374806"><ele>7.0</ele><time>2026-04-24T13:50:35.388Z</time></trkpt><trkpt lat="39.4490101" lon="9.6373952"><ele>7.000000000000001</ele><time>2026-04-24T13:50:37.374Z</time></trkpt><trkpt lat="39.4489387" lon="9.6373146"><ele>7.0</ele><time>2026-04-24T13:50:39.369Z</time></trkpt><trkpt lat="39.4488734" lon="9.6372264"><ele>7.0</ele><time>2026-04-24T13:50:41.385Z</time></trkpt><trkpt lat="39.4488198" lon="9.6371581"><ele>7.0</ele><time>2026-04-24T13:50:43.375Z</time></trkpt><trkpt lat="39.4487532" lon="9.6371877"><ele>7.000000000000001</ele><time>2026-04-24T13:50:46.37Z</time></trkpt><trkpt lat="39.4487413" lon="9.6373202"><ele>7.0</ele><time>2026-04-24T13:50:48.376Z</time></trkpt><trkpt lat="39.4487518" lon="9.6374748"><ele>7.0</ele><time>2026-04-24T13:50:50.382Z</time></trkpt><trkpt lat="39.4487558" lon="9.6376166"><ele>6.999999999999999</ele><time>2026-04-24T13:50:52.383Z</time></trkpt><trkpt lat="39.4487491" lon="9.6377466"><ele>6.999999999999999</ele><time>2026-04-24T13:50:54.363Z</time></trkpt><trkpt lat="39.4487354" lon="9.6378641"><ele>7.0</ele><time>2026-04-24T13:50:56.321Z</time></trkpt><trkpt lat="39.4487133" lon="9.6379876"><ele>7.0</ele><time>2026-04-24T13:50:58.363Z</time></trkpt><trkpt lat="39.4486931" lon="9.6381014"><ele>6.8</ele><time>2026-04-24T13:51:00.361Z</time></trkpt><trkpt lat="39.4486755" lon="9.6382107"><ele>6.6</ele><time>2026-04-24T13:51:02.371Z</time></trkpt><trkpt lat="39.4486561" lon="9.6383231"><ele>6.3999999999999995</ele><time>2026-04-24T13:51:04.375Z</time></trkpt><trkpt lat="39.4486507" lon="9.6384429"><ele>6.199999999999999</ele><time>2026-04-24T13:51:06.386Z</time></trkpt><trkpt lat="39.4486355" lon="9.6385687"><ele>6.0</ele><time>2026-04-24T13:51:08.376Z</time></trkpt><trkpt lat="39.4486102" lon="9.6386955"><ele>5.3999999999999995</ele><time>2026-04-24T13:51:10.368Z</time></trkpt><trkpt lat="39.448549" lon="9.6388136"><ele>4.8</ele><time>2026-04-24T13:51:12.379Z</time></trkpt><trkpt lat="39.4484641" lon="9.6389035"><ele>4.199999999999999</ele><time>2026-04-24T13:51:14.392Z</time></trkpt><trkpt lat="39.4483732" lon="9.6389583"><ele>3.5999999999999996</ele><time>2026-04-24T13:51:16.385Z</time></trkpt><trkpt lat="39.4482806" lon="9.6390003"><ele>3.0</ele><time>2026-04-24T13:51:18.373Z</time></trkpt><trkpt lat="39.4481926" lon="9.6390346"><ele>3.0</ele><time>2026-04-24T13:51:20.387Z</time></trkpt><trkpt lat="39.4480959" lon="9.6390577"><ele>3.0</ele><time>2026-04-24T13:51:22.389Z</time></trkpt><trkpt lat="39.4479983" lon="9.639091"><ele>3.0</ele><time>2026-04-24T13:51:24.377Z</time></trkpt><trkpt lat="39.4479016" lon="9.6391139"><ele>3.0</ele><time>2026-04-24T13:51:26.373Z</time></trkpt><trkpt lat="39.447809" lon="9.6391234"><ele>3.0</ele><time>2026-04-24T13:51:28.38Z</time></trkpt><trkpt lat="39.4477135" lon="9.639134"><ele>4.0</ele><time>2026-04-24T13:51:30.4Z</time></trkpt><trkpt lat="39.4476187" lon="9.63915"><ele>5.0</ele><time>2026-04-24T13:51:32.383Z</time></trkpt><trkpt lat="39.447524" lon="9.6391769"><ele>6.000000000000001</ele><time>2026-04-24T13:51:34.385Z</time></trkpt><trkpt lat="39.4474327" lon="9.6392304"><ele>7.0</ele><time>2026-04-24T13:51:36.382Z</time></trkpt><trkpt lat="39.4473506" lon="9.6392849"><ele>8.0</ele><time>2026-04-24T13:51:38.397Z</time></trkpt><trkpt lat="39.4472709" lon="9.6393376"><ele>8.0</ele><time>2026-04-24T13:51:40.387Z</time></trkpt><trkpt lat="39.447206" lon="9.639386"><ele>7.999999999999999</ele><time>2026-04-24T13:51:42.391Z</time></trkpt><trkpt lat="39.4471479" lon="9.6394391"><ele>8.0</ele><time>2026-04-24T13:51:44.375Z</time></trkpt><trkpt lat="39.4470788" lon="9.6394769"><ele>8.0</ele><time>2026-04-24T13:51:46.369Z</time></trkpt><trkpt lat="39.4470211" lon="9.6395254"><ele>7.999999999999999</ele><time>2026-04-24T13:51:48.384Z</time></trkpt><trkpt lat="39.4470219" lon="9.6396182"><ele>8.0</ele><time>2026-04-24T13:51:52.388Z</time></trkpt><trkpt lat="39.4470913" lon="9.6395576"><ele>8.0</ele><time>2026-04-24T13:51:55.348Z</time></trkpt><trkpt lat="39.4471552" lon="9.6394867"><ele>3.0</ele><time>2026-04-24T13:51:57.358Z</time></trkpt><trkpt lat="39.4472122" lon="9.6394502"><ele>8.0</ele><time>2026-04-24T13:52:00.375Z</time></trkpt></trkseg></trk></gpx>